Observation data for Hackberry on 11/07/2019      Previous  Date       Current Mesonet Observations  Soil Data  Daily Summary Page  Observations in Plain Language
KHA3 070600Z 22010KT 16/16 A3013 RMK A01 T01600156  RH  098%=      5-min Rain = 0
KHA3 070601Z 22011KT 16/16 A3013 RMK A01 T01600157  RH  098%=      5-min Rain = 0
KHA3 070602Z 22011KT 16/16 A3013 RMK A01 T01600157  RH  098%=      5-min Rain = 0
KHA3 070603Z 22010KT 16/16 A3013 RMK A01 T01600157  RH  098%=      5-min Rain = 0
KHA3 070604Z 22011KT 16/16 A3013 RMK A01 T01600156  RH  098%=      5-min Rain = 0.01
KHA3 070605Z 21009KT 16/16 A3013 RMK A01 T01600157  RH  098%=      5-min Rain = 0
KHA3 070606Z 21009KT 16/16 A3013 RMK A01 T01600157  RH  098%=      5-min Rain = 0
KHA3 070607Z 22008KT 16/16 A3013 RMK A01 T01600157  RH  098%=      5-min Rain = 0
KHA3 070608Z 21011KT 16/16 A3013 RMK A01 T01600157  RH  098%=      5-min Rain = 0.01
KHA3 070609Z 21010KT 16/16 A3013 RMK A01 T01600157  RH  098%=      5-min Rain = 0
KHA3 070610Z 21008KT 16/16 A3014 RMK A01 T01600157  RH  098%=      5-min Rain = 0
KHA3 070611Z 22009KT 16/16 A3014 RMK A01 T01590156  RH  098%=      5-min Rain = 0
KHA3 070612Z 22009KT 16/16 A3014 RMK A01 T01590156  RH  098%=      5-min Rain = 0
KHA3 070613Z 22009KT 16/16 A3014 RMK A01 T01600157  RH  098%=      5-min Rain = 0
KHA3 070614Z 22009KT 16/16 A3014 RMK A01 T01590157  RH  098%=      5-min Rain = 0.01
KHA3 070615Z 22011KT 16/16 A3014 RMK A01 T01600157  RH  098%=      5-min Rain = 0
KHA3 070616Z 22009KT 16/16 A3014 RMK A01 T01600157  RH  098%=      5-min Rain = 0
KHA3 070617Z 22008KT 16/16 A3014 RMK A01 T01590157  RH  098%=      5-min Rain = 0
KHA3 070618Z 22009KT 16/16 A3014 RMK A01 T01600157  RH  098%=      5-min Rain = 0
KHA3 070619Z 22009KT 16/16 A3014 RMK A01 T01600157  RH  098%=      5-min Rain = 0.01
KHA3 070620Z 22009KT 16/16 A3014 RMK A01 T01600157  RH  098%=      5-min Rain = 0
KHA3 070621Z 22009KT 16/16 A3015 RMK A01 T01590156  RH  098%=      5-min Rain = 0
KHA3 070622Z 23008KT 16/16 A3015 RMK A01 T01590156  RH  098%=      5-min Rain = 0
KHA3 070623Z 23010KT 16/16 A3015 RMK A01 T01590156  RH  098%=      5-min Rain = 0
KHA3 070624Z 24009KT 16/16 A3015 RMK A01 T01600156  RH  098%=      5-min Rain = 0.01
KHA3 070625Z 24009KT 16/16 A3015 RMK A01 T01600157  RH  098%=      5-min Rain = 0
KHA3 070626Z 24008KT 16/16 A3015 RMK A01 T01600156  RH  098%=      5-min Rain = 0
KHA3 070627Z 24008KT 16/16 A3015 RMK A01 T01600156  RH  098%=      5-min Rain = 0.01
KHA3 070628Z 24009KT 16/16 A3015 RMK A01 T01590156  RH  098%=      5-min Rain = 0
KHA3 070629Z 24009KT 16/16 A3015 RMK A01 T01590156  RH  098%=      5-min Rain = 0
KHA3 070630Z 25008KT 16/16 A3015 RMK A01 T01600156  RH  098%=      5-min Rain = 0.01
KHA3 070631Z 25006KT 16/16 A3015 RMK A01 T01600156  RH  098%=      5-min Rain = 0
KHA3 070632Z 25007KT 16/16 A3015 RMK A01 T01600156  RH  098%=      5-min Rain = 0.01
KHA3 070633Z 25007KT 16/16 A3015 RMK A01 T01590156  RH  098%=      5-min Rain = 0
KHA3 070634Z 26006KT 16/16 A3015 RMK A01 T01590156  RH  098%=      5-min Rain = 0
KHA3 070635Z 26006KT 16/16 A3015 RMK A01 T01590156  RH  098%=      5-min Rain = 0.01
KHA3 070636Z 26007KT 16/16 A3015 RMK A01 T01590156  RH  098%=      5-min Rain = 0
KHA3 070637Z 27005KT 16/16 A3015 RMK A01 T01600157  RH  098%=      5-min Rain = 0
KHA3 070638Z 28005KT 16/16 A3015 RMK A01 T01600157  RH  098%=      5-min Rain = 0.01
KHA3 070639Z 28006KT 16/16 A3015 RMK A01 T01590156  RH  098%=      5-min Rain = 0
KHA3 070640Z 28006KT 16/16 A3015 RMK A01 T01590156  RH  098%=      5-min Rain = 0
KHA3 070641Z 29006KT 16/16 A3015 RMK A01 T01590156  RH  098%=      5-min Rain = 0.01
KHA3 070642Z 29006KT 16/16 A3015 RMK A01 T01590156  RH  098%=      5-min Rain = 0
KHA3 070643Z 29006KT 16/16 A3015 RMK A01 T01590156  RH  098%=      5-min Rain = 0
KHA3 070644Z 29006KT 16/16 A3015 RMK A01 T01590157  RH  098%=      5-min Rain = 0
KHA3 070645Z 29005KT 16/16 A3015 RMK A01 T01590157  RH  099%=      5-min Rain = 0.01
KHA3 070646Z 29005KT 16/16 A3015 RMK A01 T01590157  RH  099%=      5-min Rain = 0
KHA3 070647Z 29005KT 16/16 A3015 RMK A01 T01590157  RH  099%=      5-min Rain = 0
KHA3 070648Z 29005KT 16/16 A3015 RMK A01 T01590157  RH  099%=      5-min Rain = 0
KHA3 070649Z 29005KT 16/16 A3015 RMK A01 T01590157  RH  099%=      5-min Rain = 0
KHA3 070650Z 29005KT 16/16 A3015 RMK A01 T01590157  RH  099%=      5-min Rain = 0
KHA3 070651Z 29005KT 16/16 A3015 RMK A01 T01590156  RH  099%=      5-min Rain = 0.01
KHA3 070652Z 29005KT 16/16 A3015 RMK A01 T01590157  RH  099%=      5-min Rain = 0
KHA3 070653Z 29004KT 16/16 A3015 RMK A01 T01590157  RH  099%=      5-min Rain = 0
KHA3 070654Z 28004KT 16/16 A3015 RMK A01 T01580156  RH  099%=      5-min Rain = 0
KHA3 070655Z 29005KT 16/16 A3015 RMK A01 T01590157  RH  099%=      5-min Rain = 0
KHA3 070656Z 28004KT 16/16 A3015 RMK A01 T01580157  RH  099%=      5-min Rain = 0.01
KHA3 070657Z 28004KT 16/16 A3015 RMK A01 T01590157  RH  099%=      5-min Rain = 0
KHA3 070658Z 28004KT 16/16 A3015 RMK A01 T01580157  RH  099%=      5-min Rain = 0
KHA3 070659Z 27004KT 16/16 A3015 RMK A01 T01590157  RH  099%=      5-min Rain = 0
KHA3 070700Z 27004KT 16/16 A3015 RMK A01 T01590157  RH  099%=      5-min Rain = 0
KHA3 070701Z 28004KT 16/16 A3015 RMK A01 T01580157  RH  099%=      5-min Rain = 0
KHA3 070702Z 27004KT 16/16 A3014 RMK A01 T01580156  RH  099%=      5-min Rain = 0
KHA3 070703Z 28004KT 16/16 A3014 RMK A01 T01580156  RH  099%=      5-min Rain = 0
KHA3 070704Z 27004KT 16/16 A3014 RMK A01 T01580156  RH  099%=      5-min Rain = 0
KHA3 070705Z 27004KT 16/16 A3014 RMK A01 T01580156  RH  099%=      5-min Rain = 0
KHA3 070706Z 27004KT 16/16 A3014 RMK A01 T01580157  RH  099%=      5-min Rain = 0.01
KHA3 070707Z 27005KT 16/16 A3014 RMK A01 T01580156  RH  099%=      5-min Rain = 0
KHA3 070708Z 28005KT 16/16 A3015 RMK A01 T01580157  RH  099%=      5-min Rain = 0
KHA3 070709Z 29006KT 16/16 A3015 RMK A01 T01580157  RH  099%=      5-min Rain = 0
KHA3 070710Z 31008KT 16/16 A3015 RMK A01 T01580157  RH  099%=      5-min Rain = 0
KHA3 070711Z 32013KT 16/16 A3016 RMK A01 T01580156  RH  099%=      5-min Rain = 0
KHA3 070712Z 34020G26KT 16/15 A3017 RMK A01 T01550152  RH  098%=      5-min Rain = 0
KHA3 070713Z 35024KT 14/12 A3017 RMK A01 T01370123  RH  091%=      5-min Rain = 0
KHA3 070714Z 00027KT 12/10 A3017 RMK A01 T01190102  RH  089%=      5-min Rain = 0
KHA3 070715Z 36023KT 11/09 A3018 RMK A01 T01090092  RH  090%=      5-min Rain = 0
KHA3 070716Z 00022KT 10/09 A3018 RMK A01 T01030088  RH  090%=      5-min Rain = 0
KHA3 070717Z 00021G26KT 10/09 A3018 RMK A01 T00990085  RH  091%=      5-min Rain = 0
KHA3 070718Z 36022G28KT 10/09 A3018 RMK A01 T00970085  RH  092%=      5-min Rain = 0
KHA3 070719Z 35024KT 10/09 A3019 RMK A01 T00960085  RH  093%=      5-min Rain = 0
KHA3 070720Z 35022G27KT 10/08 A3019 RMK A01 T00950084  RH  093%=      5-min Rain = 0
KHA3 070721Z 35019G26KT 09/09 A3019 RMK A01 T00940085  RH  094%=      5-min Rain = 0.01
KHA3 070722Z 35021G26KT 09/08 A3019 RMK A01 T00930084  RH  094%=      5-min Rain = 0
KHA3 070723Z 35021G27KT 09/08 A3019 RMK A01 T00920082  RH  094%=      5-min Rain = 0
KHA3 070724Z 36025G30KT 09/08 A3019 RMK A01 T00900080  RH  093%=      5-min Rain = 0
KHA3 070725Z 36022KT 09/08 A3019 RMK A01 T00890079  RH  093%=      5-min Rain = 0
KHA3 070726Z 36018G23KT 09/08 A302 RMK A01 T00880078  RH  094%=      5-min Rain = 0
KHA3 070727Z 35026G31KT 09/08 A3019 RMK A01 T00870078  RH  094%=      5-min Rain = 0
KHA3 070728Z 36024G29KT 09/08 A302 RMK A01 T00860076  RH  093%=      5-min Rain = 0
KHA3 070729Z 00023G29KT 09/08 A302 RMK A01 T00850075  RH  093%=      5-min Rain = 0
KHA3 070730Z 00024G30KT 09/08 A302 RMK A01 T00850075  RH  094%=      5-min Rain = 0
KHA3 070731Z 36023KT 08/07 A302 RMK A01 T00840074  RH  094%=      5-min Rain = 0
KHA3 070732Z 36025G30KT 08/07 A3019 RMK A01 T00830074  RH  094%=      5-min Rain = 0
KHA3 070733Z 35023G28KT 08/07 A302 RMK A01 T00830073  RH  094%=      5-min Rain = 0
KHA3 070734Z 35022KT 08/07 A302 RMK A01 T00820072  RH  094%=      5-min Rain = 0
KHA3 070735Z 35022G28KT 08/07 A302 RMK A01 T00810072  RH  094%=      5-min Rain = 0
KHA3 070736Z 35024KT 08/07 A302 RMK A01 T00800071  RH  094%=      5-min Rain = 0
KHA3 070737Z 35025KT 08/07 A302 RMK A01 T00790070  RH  094%=      5-min Rain = 0
KHA3 070738Z 00026KT 08/07 A302 RMK A01 T00780068  RH  093%=      5-min Rain = 0
KHA3 070739Z 36025KT 08/07 A302 RMK A01 T00770067  RH  093%=      5-min Rain = 0
KHA3 070740Z 36022KT 08/07 A3021 RMK A01 T00760066  RH  093%=      5-min Rain = 0
KHA3 070741Z 35023KT 08/07 A3021 RMK A01 T00760067  RH  094%=      5-min Rain = 0
KHA3 070742Z 36022KT 08/07 A3021 RMK A01 T00760066  RH  093%=      5-min Rain = 0
KHA3 070743Z 36020KT 08/07 A3021 RMK A01 T00750066  RH  093%=      5-min Rain = 0
KHA3 070744Z 35019KT 08/07 A3021 RMK A01 T00750066  RH  094%=      5-min Rain = 0
KHA3 070745Z 00020KT 08/07 A3021 RMK A01 T00750066  RH  094%=      5-min Rain = 0
KHA3 070746Z 36017KT 08/07 A3021 RMK A01 T00750066  RH  094%=      5-min Rain = 0
KHA3 070747Z 00016KT 08/07 A3021 RMK A01 T00750067  RH  095%=      5-min Rain = 0
KHA3 070748Z 36017KT 08/07 A3021 RMK A01 T00750067  RH  095%=      5-min Rain = 0
KHA3 070749Z 35017G22KT 07/07 A3022 RMK A01 T00740068  RH  095%=      5-min Rain = 0
KHA3 070750Z 35021KT 07/07 A3022 RMK A01 T00740067  RH  095%=      5-min Rain = 0
KHA3 070751Z 35018KT 07/07 A3022 RMK A01 T00730065  RH  095%=      5-min Rain = 0
KHA3 070752Z 35020G29KT 07/06 A3022 RMK A01 T00720064  RH  095%=      5-min Rain = 0
KHA3 070753Z 36024G29KT 07/06 A3022 RMK A01 T00710062  RH  094%=      5-min Rain = 0
KHA3 070754Z 36019G24KT 07/06 A3022 RMK A01 T00700060  RH  094%=      5-min Rain = 0
KHA3 070755Z 36018KT 07/06 A3022 RMK A01 T00700061  RH  094%=      5-min Rain = 0
KHA3 070756Z 35015G20KT 07/06 A3022 RMK A01 T00690061  RH  095%=      5-min Rain = 0
KHA3 070757Z 35017KT 07/06 A3022 RMK A01 T00690062  RH  095%=      5-min Rain = 0
KHA3 070758Z 35014G19KT 07/06 A3022 RMK A01 T00690063  RH  096%=      5-min Rain = 0
KHA3 070759Z 34020KT 07/06 A3022 RMK A01 T00690062  RH  096%=      5-min Rain = 0
KHA3 070800Z 34019G25KT 07/06 A3022 RMK A01 T00660058  RH  095%=      5-min Rain = 0
KHA3 070801Z 35016G22KT 06/06 A3022 RMK A01 T00640056  RH  095%=      5-min Rain = 0
KHA3 070802Z 35017KT 06/06 A3022 RMK A01 T00630055  RH  095%=      5-min Rain = 0
KHA3 070803Z 36017G22KT 06/06 A3022 RMK A01 T00620055  RH  095%=      5-min Rain = 0
KHA3 070804Z 36018G23KT 06/06 A3022 RMK A01 T00620055  RH  095%=      5-min Rain = 0
KHA3 070805Z 35019KT 06/05 A3022 RMK A01 T00610054  RH  095%=      5-min Rain = 0
KHA3 070806Z 36017G22KT 06/05 A3022 RMK A01 T00600053  RH  095%=      5-min Rain = 0
KHA3 070807Z 35020G25KT 06/05 A3023 RMK A01 T00600053  RH  096%=      5-min Rain = 0
KHA3 070808Z 35019KT 06/05 A3023 RMK A01 T00590053  RH  095%=      5-min Rain = 0
KHA3 070809Z 35019KT 06/05 A3023 RMK A01 T00590052  RH  095%=      5-min Rain = 0
KHA3 070810Z 35019G24KT 06/05 A3023 RMK A01 T00590052  RH  095%=      5-min Rain = 0
KHA3 070811Z 35019G25KT 06/05 A3023 RMK A01 T00580051  RH  095%=      5-min Rain = 0
KHA3 070812Z 35019KT 06/05 A3023 RMK A01 T00580051  RH  095%=      5-min Rain = 0
KHA3 070813Z 34018KT 06/05 A3023 RMK A01 T00580051  RH  095%=      5-min Rain = 0
KHA3 070814Z 35022KT 06/05 A3023 RMK A01 T00580050  RH  095%=      5-min Rain = 0
KHA3 070815Z 35019KT 06/05 A3023 RMK A01 T00580050  RH  095%=      5-min Rain = 0
KHA3 070816Z 35021G26KT 06/05 A3023 RMK A01 T00570049  RH  095%=      5-min Rain = 0
KHA3 070817Z 35019KT 06/05 A3023 RMK A01 T00570050  RH  095%=      5-min Rain = 0
KHA3 070818Z 35020KT 06/05 A3023 RMK A01 T00570050  RH  095%=      5-min Rain = 0
KHA3 070819Z 35018KT 06/05 A3023 RMK A01 T00570050  RH  095%=      5-min Rain = 0.01
KHA3 070820Z 35014KT 06/05 A3023 RMK A01 T00570050  RH  095%=      5-min Rain = 0
KHA3 070821Z 35017KT 06/05 A3024 RMK A01 T00570051  RH  096%=      5-min Rain = 0
KHA3 070822Z 34019KT 06/05 A3024 RMK A01 T00570051  RH  096%=      5-min Rain = 0
KHA3 070823Z 34015KT 06/05 A3024 RMK A01 T00570050  RH  096%=      5-min Rain = 0
KHA3 070824Z 34017KT 06/05 A3025 RMK A01 T00570050  RH  096%=      5-min Rain = 0
KHA3 070825Z 34019G24KT 06/05 A3025 RMK A01 T00570051  RH  096%=      5-min Rain = 0
KHA3 070826Z 34020KT 06/05 A3025 RMK A01 T00560050  RH  096%=      5-min Rain = 0
KHA3 070827Z 34017G22KT 06/05 A3024 RMK A01 T00560049  RH  095%=      5-min Rain = 0
KHA3 070828Z 35015G23KT 06/05 A3024 RMK A01 T00550048  RH  095%=      5-min Rain = 0
KHA3 070829Z 35019KT 06/05 A3023 RMK A01 T00550048  RH  096%=      5-min Rain = 0
KHA3 070830Z 35023G28KT 05/05 A3023 RMK A01 T00540048  RH  096%=      5-min Rain = 0.01
KHA3 070831Z 35023G28KT 05/05 A3023 RMK A01 T00540046  RH  095%=      5-min Rain = 0
KHA3 070832Z 35020KT 05/05 A3023 RMK A01 T00530045  RH  095%=      5-min Rain = 0
KHA3 070833Z 35019G25KT 05/05 A3024 RMK A01 T00530045  RH  095%=      5-min Rain = 0
KHA3 070834Z 36020KT 05/04 A3024 RMK A01 T00530044  RH  094%=      5-min Rain = 0
KHA3 070835Z 36019G25KT 05/05 A3023 RMK A01 T00530045  RH  095%=      5-min Rain = 0
KHA3 070836Z 35020KT 05/05 A3023 RMK A01 T00530045  RH  095%=      5-min Rain = 0
KHA3 070837Z 36018G24KT 05/04 A3023 RMK A01 T00520044  RH  095%=      5-min Rain = 0
KHA3 070838Z 36021KT 05/04 A3023 RMK A01 T00520044  RH  094%=      5-min Rain = 0
KHA3 070839Z 00018KT 05/04 A3023 RMK A01 T00520043  RH  094%=      5-min Rain = 0
KHA3 070840Z 35017G22KT 05/05 A3024 RMK A01 T00520045  RH  095%=      5-min Rain = 0
KHA3 070841Z 36021KT 05/05 A3024 RMK A01 T00520045  RH  095%=      5-min Rain = 0
KHA3 070842Z 35017KT 05/04 A3024 RMK A01 T00520044  RH  095%=      5-min Rain = 0
KHA3 070843Z 35015G20KT 05/05 A3024 RMK A01 T00520045  RH  095%=      5-min Rain = 0
KHA3 070844Z 34019G24KT 05/05 A3024 RMK A01 T00530046  RH  096%=      5-min Rain = 0
KHA3 070845Z 34022KT 05/05 A3025 RMK A01 T00520045  RH  095%=      5-min Rain = 0
KHA3 070846Z 34020KT 05/04 A3025 RMK A01 T00510044  RH  095%=      5-min Rain = 0
KHA3 070847Z 34019KT 05/04 A3025 RMK A01 T00500043  RH  095%=      5-min Rain = 0
KHA3 070848Z 34019KT 05/04 A3025 RMK A01 T00500043  RH  095%=      5-min Rain = 0
KHA3 070849Z 34020KT 05/04 A3025 RMK A01 T00490042  RH  095%=      5-min Rain = 0
KHA3 070850Z 34024KT 05/04 A3025 RMK A01 T00490041  RH  095%=      5-min Rain = 0
KHA3 070851Z 35025KT 05/04 A3025 RMK A01 T00480040  RH  094%=      5-min Rain = 0
KHA3 070852Z 35021G26KT 05/04 A3025 RMK A01 T00480039  RH  094%=      5-min Rain = 0
KHA3 070853Z 35023G29KT 05/04 A3025 RMK A01 T00480039  RH  094%=      5-min Rain = 0
KHA3 070854Z 35023KT 05/04 A3025 RMK A01 T00480038  RH  094%=      5-min Rain = 0
KHA3 070855Z 35021G27KT 05/04 A3026 RMK A01 T00480038  RH  094%=      5-min Rain = 0
KHA3 070856Z 35024KT 05/04 A3026 RMK A01 T00470038  RH  094%=      5-min Rain = 0
KHA3 070857Z 35022KT 05/04 A3026 RMK A01 T00470038  RH  094%=      5-min Rain = 0
KHA3 070858Z 36019KT 05/04 A3026 RMK A01 T00470038  RH  094%=      5-min Rain = 0
KHA3 070859Z 34021KT 05/04 A3026 RMK A01 T00470039  RH  094%=      5-min Rain = 0
KHA3 070900Z 35020G25KT 05/04 A3026 RMK A01 T00470039  RH  094%=      5-min Rain = 0
KHA3 070901Z 35021KT 05/04 A3026 RMK A01 T00470039  RH  094%=      5-min Rain = 0
KHA3 070902Z 35020G25KT 05/04 A3026 RMK A01 T00470039  RH  095%=      5-min Rain = 0
KHA3 070903Z 35021KT 05/04 A3026 RMK A01 T00470039  RH  095%=      5-min Rain = 0
KHA3 070904Z 35020KT 05/04 A3026 RMK A01 T00470039  RH  095%=      5-min Rain = 0
KHA3 070905Z 35019KT 05/04 A3026 RMK A01 T00470040  RH  095%=      5-min Rain = 0
KHA3 070906Z 34022KT 05/04 A3026 RMK A01 T00480040  RH  095%=      5-min Rain = 0
KHA3 070907Z 35019G24KT 05/04 A3026 RMK A01 T00470039  RH  095%=      5-min Rain = 0
KHA3 070908Z 35026KT 05/04 A3026 RMK A01 T00470038  RH  094%=      5-min Rain = 0
KHA3 070909Z 35021G29KT 05/04 A3027 RMK A01 T00460036  RH  093%=      5-min Rain = 0
KHA3 070910Z 35019KT 05/04 A3027 RMK A01 T00460036  RH  093%=      5-min Rain = 0
KHA3 070911Z 34020G25KT 05/04 A3027 RMK A01 T00460037  RH  094%=      5-min Rain = 0
KHA3 070912Z 35021KT 05/04 A3027 RMK A01 T00450037  RH  094%=      5-min Rain = 0
KHA3 070913Z 35022KT 05/04 A3027 RMK A01 T00450037  RH  094%=      5-min Rain = 0
KHA3 070914Z 34018KT 05/04 A3027 RMK A01 T00450037  RH  094%=      5-min Rain = 0
KHA3 070915Z 35016KT 05/04 A3028 RMK A01 T00450037  RH  095%=      5-min Rain = 0
KHA3 070916Z 35016KT 05/04 A3028 RMK A01 T00450038  RH  095%=      5-min Rain = 0
KHA3 070917Z 34019G27KT 05/04 A3028 RMK A01 T00450038  RH  095%=      5-min Rain = 0
KHA3 070918Z 35022KT 05/04 A3028 RMK A01 T00450039  RH  095%=      5-min Rain = 0
KHA3 070919Z 35023G28KT 05/04 A3028 RMK A01 T00450038  RH  095%=      5-min Rain = 0
KHA3 070920Z 34024KT 05/04 A3028 RMK A01 T00450037  RH  094%=      5-min Rain = 0
KHA3 070921Z 35021G27KT 05/04 A3028 RMK A01 T00450036  RH  094%=      5-min Rain = 0
KHA3 070922Z 35020G25KT 05/04 A3028 RMK A01 T00450035  RH  094%=      5-min Rain = 0
KHA3 070923Z 35023KT 05/04 A3028 RMK A01 T00450036  RH  094%=      5-min Rain = 0
KHA3 070924Z 35022KT 05/04 A3028 RMK A01 T00450036  RH  094%=      5-min Rain = 0
KHA3 070925Z 35021KT 05/04 A3028 RMK A01 T00450036  RH  094%=      5-min Rain = 0
KHA3 070926Z 35020KT 04/04 A3028 RMK A01 T00440036  RH  094%=      5-min Rain = 0
KHA3 070927Z 35023G29KT 04/04 A3028 RMK A01 T00440036  RH  094%=      5-min Rain = 0
KHA3 070928Z 34020G26KT 04/04 A3028 RMK A01 T00440035  RH  094%=      5-min Rain = 0
KHA3 070929Z 34019G25KT 04/04 A3028 RMK A01 T00440035  RH  094%=      5-min Rain = 0
KHA3 070930Z 34020KT 04/03 A3028 RMK A01 T00440034  RH  094%=      5-min Rain = 0
KHA3 070931Z 35020G25KT 04/03 A3028 RMK A01 T00440034  RH  094%=      5-min Rain = 0
KHA3 070932Z 35024G29KT 04/03 A3028 RMK A01 T00430034  RH  094%=      5-min Rain = 0
KHA3 070933Z 35022G28KT 04/03 A3028 RMK A01 T00420032  RH  093%=      5-min Rain = 0
KHA3 070934Z 35020G25KT 04/03 A3028 RMK A01 T00420032  RH  093%=      5-min Rain = 0
KHA3 070935Z 35020KT 04/03 A3028 RMK A01 T00420032  RH  093%=      5-min Rain = 0
KHA3 070936Z 35024KT 04/03 A3028 RMK A01 T00420032  RH  093%=      5-min Rain = 0
KHA3 070937Z 35020G25KT 04/03 A3029 RMK A01 T00420032  RH  093%=      5-min Rain = 0
KHA3 070938Z 35021G27KT 04/03 A3029 RMK A01 T00420032  RH  094%=      5-min Rain = 0
KHA3 070939Z 35018KT 04/03 A3029 RMK A01 T00420032  RH  094%=      5-min Rain = 0
KHA3 070940Z 35017KT 04/03 A3029 RMK A01 T00410032  RH  094%=      5-min Rain = 0
KHA3 070941Z 35018G23KT 04/03 A3029 RMK A01 T00410034  RH  095%=      5-min Rain = 0
KHA3 070942Z 35018KT 04/03 A3029 RMK A01 T00410034  RH  095%=      5-min Rain = 0
KHA3 070943Z 35019KT 04/03 A3029 RMK A01 T00410034  RH  095%=      5-min Rain = 0
KHA3 070944Z 34017KT 04/03 A3029 RMK A01 T00410034  RH  095%=      5-min Rain = 0
KHA3 070945Z 35019KT 04/03 A3029 RMK A01 T00410034  RH  095%=      5-min Rain = 0
KHA3 070946Z 34017KT 04/04 A303 RMK A01 T00410035  RH  095%=      5-min Rain = 0
KHA3 070947Z 34016G21KT 04/04 A303 RMK A01 T00410035  RH  095%=      5-min Rain = 0
KHA3 070948Z 34022KT 04/04 A303 RMK A01 T00420035  RH  095%=      5-min Rain = 0
KHA3 070949Z 34019KT 04/03 A303 RMK A01 T00410034  RH  095%=      5-min Rain = 0
KHA3 070950Z 34022G27KT 04/03 A3029 RMK A01 T00410034  RH  095%=      5-min Rain = 0
KHA3 070951Z 35023KT 04/03 A303 RMK A01 T00410033  RH  095%=      5-min Rain = 0
KHA3 070952Z 34022G28KT 04/03 A303 RMK A01 T00400032  RH  094%=      5-min Rain = 0
KHA3 070953Z 34023KT 04/03 A303 RMK A01 T00400031  RH  094%=      5-min Rain = 0
KHA3 070954Z 35024KT 04/03 A303 RMK A01 T00400030  RH  093%=      5-min Rain = 0
KHA3 070955Z 34022G28KT 04/03 A303 RMK A01 T00400030  RH  093%=      5-min Rain = 0
KHA3 070956Z 35023KT 04/03 A303 RMK A01 T00400030  RH  093%=      5-min Rain = 0
KHA3 070957Z 35021G29KT 04/03 A303 RMK A01 T00400030  RH  093%=      5-min Rain = 0
KHA3 070958Z 35024KT 04/03 A303 RMK A01 T00400030  RH  093%=      5-min Rain = 0
KHA3 070959Z 35022KT 04/03 A303 RMK A01 T00400030  RH  093%=      5-min Rain = 0
KHA3 071000Z 34021KT 04/03 A3031 RMK A01 T00390030  RH  094%=      5-min Rain = 0
KHA3 071001Z 35021G26KT 04/03 A3031 RMK A01 T00390030  RH  094%=      5-min Rain = 0
KHA3 071002Z 35017G24KT 04/03 A3031 RMK A01 T00390031  RH  094%=      5-min Rain = 0
KHA3 071003Z 35024KT 04/03 A3031 RMK A01 T00390031  RH  095%=      5-min Rain = 0
KHA3 071004Z 35019G24KT 04/03 A3031 RMK A01 T00380030  RH  095%=      5-min Rain = 0
KHA3 071005Z 35019KT 04/03 A3031 RMK A01 T00380031  RH  095%=      5-min Rain = 0
KHA3 071006Z 35023KT 04/03 A303 RMK A01 T00380031  RH  095%=      5-min Rain = 0
KHA3 071007Z 35023KT 04/03 A303 RMK A01 T00380029  RH  094%=      5-min Rain = 0
KHA3 071008Z 35024KT 04/03 A303 RMK A01 T00380029  RH  094%=      5-min Rain = 0
KHA3 071009Z 35022KT 04/03 A303 RMK A01 T00370028  RH  094%=      5-min Rain = 0
KHA3 071010Z 35023G30KT 04/03 A303 RMK A01 T00380028  RH  094%=      5-min Rain = 0
KHA3 071011Z 34025KT 04/03 A303 RMK A01 T00370028  RH  094%=      5-min Rain = 0
KHA3 071012Z 35024KT 04/03 A3031 RMK A01 T00370028  RH  094%=      5-min Rain = 0
KHA3 071013Z 35020KT 04/03 A3031 RMK A01 T00370028  RH  094%=      5-min Rain = 0
KHA3 071014Z 35020KT 04/03 A303 RMK A01 T00370029  RH  094%=      5-min Rain = 0
KHA3 071015Z 35019KT 04/03 A3031 RMK A01 T00370029  RH  095%=      5-min Rain = 0.01
KHA3 071016Z 35018KT 04/03 A3031 RMK A01 T00370029  RH  095%=      5-min Rain = 0
KHA3 071017Z 35017G29KT 04/03 A303 RMK A01 T00370030  RH  095%=      5-min Rain = 0
KHA3 071018Z 35021KT 04/03 A303 RMK A01 T00370030  RH  096%=      5-min Rain = 0
KHA3 071019Z 34024KT 04/03 A303 RMK A01 T00360029  RH  096%=      5-min Rain = 0
KHA3 071020Z 34019KT 04/03 A3031 RMK A01 T00350029  RH  095%=      5-min Rain = 0
KHA3 071021Z 35019KT 04/03 A3031 RMK A01 T00350029  RH  095%=      5-min Rain = 0
KHA3 071022Z 34018KT 04/03 A3031 RMK A01 T00350029  RH  096%=      5-min Rain = 0
KHA3 071023Z 35019G25KT 04/03 A3031 RMK A01 T00350029  RH  096%=      5-min Rain = 0
KHA3 071024Z 35019G24KT 03/03 A3031 RMK A01 T00340029  RH  096%=      5-min Rain = 0
KHA3 071025Z 35025G31KT 03/03 A3031 RMK A01 T00340028  RH  096%=      5-min Rain = 0
KHA3 071026Z 34022KT 03/03 A3031 RMK A01 T00340028  RH  096%=      5-min Rain = 0.01
KHA3 071027Z 35021KT 03/03 A3031 RMK A01 T00330027  RH  096%=      5-min Rain = 0
KHA3 071028Z 34023G29KT 03/03 A3031 RMK A01 T00330027  RH  096%=      5-min Rain = 0
KHA3 071029Z 36022KT 03/03 A3031 RMK A01 T00330027  RH  096%=      5-min Rain = 0
KHA3 071030Z 36023G28KT 03/03 A3031 RMK A01 T00330027  RH  096%=      5-min Rain = 0
KHA3 071031Z 36024KT 03/03 A3031 RMK A01 T00330027  RH  096%=      5-min Rain = 0
KHA3 071032Z 35024G30KT 03/03 A3031 RMK A01 T00330027  RH  096%=      5-min Rain = 0
KHA3 071033Z 35020KT 03/03 A3031 RMK A01 T00320026  RH  096%=      5-min Rain = 0
KHA3 071034Z 36021G26KT 03/03 A3031 RMK A01 T00320027  RH  096%=      5-min Rain = 0
KHA3 071035Z 36021KT 03/03 A3031 RMK A01 T00330027  RH  096%=      5-min Rain = 0
KHA3 071036Z 35021G26KT 03/03 A3031 RMK A01 T00320027  RH  096%=      5-min Rain = 0.01
KHA3 071037Z 35020KT 03/03 A3031 RMK A01 T00330027  RH  096%=      5-min Rain = 0
KHA3 071038Z 35018KT 03/03 A3031 RMK A01 T00320027  RH  096%=      5-min Rain = 0
KHA3 071039Z 36016KT 03/03 A3031 RMK A01 T00330028  RH  097%=      5-min Rain = 0
KHA3 071040Z 35021KT 03/03 A3031 RMK A01 T00320028  RH  097%=      5-min Rain = 0
KHA3 071041Z 35019G24KT 03/03 A3031 RMK A01 T00320028  RH  097%=      5-min Rain = 0
KHA3 071042Z 36015KT 03/03 A3031 RMK A01 T00320028  RH  097%=      5-min Rain = 0
KHA3 071043Z 36019KT 03/03 A3031 RMK A01 T00320028  RH  097%=      5-min Rain = 0
KHA3 071044Z 35018KT 03/03 A3031 RMK A01 T00320028  RH  097%=      5-min Rain = 0
KHA3 071045Z 35017KT 03/03 A3031 RMK A01 T00320028  RH  097%=      5-min Rain = 0.01
KHA3 071046Z 35018G23KT 03/03 A3031 RMK A01 T00320028  RH  097%=      5-min Rain = 0
KHA3 071047Z 35021G26KT 03/03 A3031 RMK A01 T00310027  RH  097%=      5-min Rain = 0
KHA3 071048Z 35020KT 03/03 A3031 RMK A01 T00300026  RH  097%=      5-min Rain = 0
KHA3 071049Z 35015KT 03/03 A3032 RMK A01 T00310026  RH  097%=      5-min Rain = 0
KHA3 071050Z 36015G21KT 03/03 A3032 RMK A01 T00310027  RH  097%=      5-min Rain = 0
KHA3 071051Z 35018KT 03/03 A3032 RMK A01 T00310027  RH  097%=      5-min Rain = 0.01
KHA3 071052Z 35014KT 03/03 A3032 RMK A01 T00310027  RH  097%=      5-min Rain = 0
KHA3 071053Z 35015KT 03/03 A3032 RMK A01 T00310028  RH  098%=      5-min Rain = 0
KHA3 071054Z 36016KT 03/03 A3032 RMK A01 T00310028  RH  098%=      5-min Rain = 0
KHA3 071055Z 36017KT 03/03 A3032 RMK A01 T00310027  RH  098%=      5-min Rain = 0.01
KHA3 071056Z 36018G23KT 03/03 A3032 RMK A01 T00300027  RH  098%=      5-min Rain = 0
KHA3 071057Z 35017G22KT 03/03 A3032 RMK A01 T00300026  RH  098%=      5-min Rain = 0
KHA3 071058Z 35019KT 03/03 A3032 RMK A01 T00290026  RH  098%=      5-min Rain = 0
KHA3 071059Z 35020G25KT 03/03 A3032 RMK A01 T00290025  RH  097%=      5-min Rain = 0
KHA3 071100Z 35023KT 03/02 A3032 RMK A01 T00280024  RH  097%=      5-min Rain = 0
KHA3 071101Z 35021KT 03/02 A3032 RMK A01 T00280023  RH  097%=      5-min Rain = 0.01
KHA3 071102Z 35021KT 03/02 A3032 RMK A01 T00270023  RH  097%=      5-min Rain = 0
KHA3 071103Z 36019G24KT 03/02 A3032 RMK A01 T00270023  RH  097%=      5-min Rain = 0
KHA3 071104Z 36019G26KT 03/02 A3032 RMK A01 T00270022  RH  097%=      5-min Rain = 0
KHA3 071105Z 35021KT 03/02 A3032 RMK A01 T00270022  RH  097%=      5-min Rain = 0
KHA3 071106Z 36022KT 03/02 A3032 RMK A01 T00260021  RH  097%=      5-min Rain = 0
KHA3 071107Z 35023G29KT 03/02 A3032 RMK A01 T00260021  RH  097%=      5-min Rain = 0.01
KHA3 071108Z 36023G28KT 03/02 A3032 RMK A01 T00260021  RH  097%=      5-min Rain = 0
KHA3 071109Z 00023KT 03/02 A3032 RMK A01 T00250019  RH  096%=      5-min Rain = 0
KHA3 071110Z 00028KT 02/02 A3032 RMK A01 T00240018  RH  096%=      5-min Rain = 0
KHA3 071111Z 00021G26KT 02/02 A3033 RMK A01 T00240017  RH  095%=      5-min Rain = 0
KHA3 071112Z 00021KT 02/02 A3033 RMK A01 T00240017  RH  095%=      5-min Rain = 0
KHA3 071113Z 01025G31KT 02/02 A3033 RMK A01 T00230016  RH  095%=      5-min Rain = 0
KHA3 071114Z 00018KT 02/02 A3033 RMK A01 T00230015  RH  094%=      5-min Rain = 0
KHA3 071115Z 00018KT 02/02 A3033 RMK A01 T00230016  RH  095%=      5-min Rain = 0
KHA3 071116Z 00021G26KT 02/02 A3033 RMK A01 T00230016  RH  095%=      5-min Rain = 0.01
KHA3 071117Z 36019G28KT 02/02 A3033 RMK A01 T00230016  RH  095%=      5-min Rain = 0
KHA3 071118Z 36022KT 02/02 A3033 RMK A01 T00230016  RH  095%=      5-min Rain = 0
KHA3 071119Z 01020KT 02/02 A3033 RMK A01 T00230016  RH  095%=      5-min Rain = 0
KHA3 071120Z 00017KT 02/02 A3033 RMK A01 T00230016  RH  095%=      5-min Rain = 0
KHA3 071121Z 00021KT 02/02 A3033 RMK A01 T00230016  RH  095%=      5-min Rain = 0
KHA3 071122Z 36022G28KT 02/02 A3032 RMK A01 T00230016  RH  095%=      5-min Rain = 0.01
KHA3 071123Z 00021KT 02/02 A3032 RMK A01 T00230016  RH  095%=      5-min Rain = 0
KHA3 071124Z 00018G25KT 02/02 A3033 RMK A01 T00230016  RH  095%=      5-min Rain = 0
KHA3 071125Z 00021KT 02/02 A3033 RMK A01 T00230016  RH  095%=      5-min Rain = 0
KHA3 071126Z 01019KT 02/02 A3033 RMK A01 T00230016  RH  095%=      5-min Rain = 0
KHA3 071127Z 35019KT 02/02 A3033 RMK A01 T00230016  RH  096%=      5-min Rain = 0
KHA3 071128Z 00016KT 02/02 A3033 RMK A01 T00230017  RH  096%=      5-min Rain = 0
KHA3 071129Z 36017KT 02/02 A3034 RMK A01 T00230017  RH  096%=      5-min Rain = 0
KHA3 071130Z 35016G21KT 02/02 A3034 RMK A01 T00230018  RH  096%=      5-min Rain = 0
KHA3 071131Z 36016G23KT 02/02 A3034 RMK A01 T00240018  RH  096%=      5-min Rain = 0
KHA3 071132Z 35023KT 02/02 A3034 RMK A01 T00240018  RH  096%=      5-min Rain = 0
KHA3 071133Z 35020KT 02/02 A3034 RMK A01 T00230017  RH  096%=      5-min Rain = 0
KHA3 071134Z 35018KT 02/02 A3034 RMK A01 T00230017  RH  095%=      5-min Rain = 0
KHA3 071135Z 35019KT 02/02 A3035 RMK A01 T00230017  RH  095%=      5-min Rain = 0.01
KHA3 071136Z 35018G23KT 02/02 A3035 RMK A01 T00230017  RH  095%=      5-min Rain = 0
KHA3 071137Z 35018KT 02/02 A3035 RMK A01 T00240017  RH  095%=      5-min Rain = 0
KHA3 071138Z 35015KT 02/02 A3035 RMK A01 T00230016  RH  095%=      5-min Rain = 0
KHA3 071139Z 36017G23KT 02/02 A3035 RMK A01 T00230016  RH  095%=      5-min Rain = 0
KHA3 071140Z 35021KT 02/02 A3035 RMK A01 T00230016  RH  095%=      5-min Rain = 0
KHA3 071141Z 35020KT 02/02 A3035 RMK A01 T00220015  RH  095%=      5-min Rain = 0
KHA3 071142Z 35021G26KT 02/02 A3035 RMK A01 T00220015  RH  095%=      5-min Rain = 0
KHA3 071143Z 35023KT 02/01 A3035 RMK A01 T00210014  RH  095%=      5-min Rain = 0
KHA3 071144Z 35020KT 02/01 A3035 RMK A01 T00210014  RH  095%=      5-min Rain = 0
KHA3 071145Z 00021G26KT 02/01 A3035 RMK A01 T00210014  RH  095%=      5-min Rain = 0
KHA3 071146Z 35021KT 02/01 A3035 RMK A01 T00210013  RH  095%=      5-min Rain = 0
KHA3 071147Z 35021KT 02/01 A3035 RMK A01 T00210014  RH  095%=      5-min Rain = 0
KHA3 071148Z 35019KT 02/01 A3035 RMK A01 T00200013  RH  095%=      5-min Rain = 0
KHA3 071149Z 36018KT 02/01 A3035 RMK A01 T00200013  RH  095%=      5-min Rain = 0
KHA3 071150Z 36016KT 02/01 A3035 RMK A01 T00200013  RH  095%=      5-min Rain = 0
KHA3 071151Z 00018G24KT 02/01 A3034 RMK A01 T00200013  RH  095%=      5-min Rain = 0
KHA3 071152Z 00022G27KT 02/01 A3034 RMK A01 T00200013  RH  095%=      5-min Rain = 0
KHA3 071153Z 36023KT 02/01 A3034 RMK A01 T00200013  RH  095%=      5-min Rain = 0
KHA3 071154Z 00022KT 02/01 A3034 RMK A01 T00200012  RH  095%=      5-min Rain = 0
KHA3 071155Z 36021KT 02/01 A3034 RMK A01 T00200012  RH  095%=      5-min Rain = 0
KHA3 071156Z 36021KT 02/01 A3035 RMK A01 T00190011  RH  095%=      5-min Rain = 0
KHA3 071157Z 36020KT 02/01 A3035 RMK A01 T00190011  RH  095%=      5-min Rain = 0
KHA3 071158Z 00018G23KT 02/01 A3035 RMK A01 T00190012  RH  095%=      5-min Rain = 0
KHA3 071159Z 35019G25KT 02/01 A3035 RMK A01 T00190011  RH  095%=      5-min Rain = 0
KHA3 071200Z 35024KT 02/01 A3035 RMK A01 T00190011  RH  095%=      5-min Rain = 0
KHA3 071201Z 35021KT 02/01 A3035 RMK A01 T00190011  RH  094%=      5-min Rain = 0
KHA3 071202Z 36022G27KT 02/01 A3035 RMK A01 T00190011  RH  094%=      5-min Rain = 0.01
KHA3 071203Z 36021KT 02/01 A3035 RMK A01 T00190011  RH  094%=      5-min Rain = 0
KHA3 071204Z 35021KT 02/01 A3035 RMK A01 T00190011  RH  094%=      5-min Rain = 0
KHA3 071205Z 36024G29KT 02/01 A3035 RMK A01 T00180010  RH  094%=      5-min Rain = 0
KHA3 071206Z 36022KT 02/01 A3035 RMK A01 T00180009  RH  094%=      5-min Rain = 0
KHA3 071207Z 00019G24KT 02/01 A3035 RMK A01 T00180010  RH  094%=      5-min Rain = 0
KHA3 071208Z 36022G27KT 02/01 A3035 RMK A01 T00180010  RH  094%=      5-min Rain = 0
KHA3 071209Z 01024KT 02/01 A3036 RMK A01 T00180010  RH  094%=      5-min Rain = 0
KHA3 071210Z 36023KT 02/01 A3036 RMK A01 T00180010  RH  094%=      5-min Rain = 0
KHA3 071211Z 36023G28KT 02/01 A3036 RMK A01 T00180009  RH  094%=      5-min Rain = 0
KHA3 071212Z 36018KT 02/01 A3036 RMK A01 T00180009  RH  094%=      5-min Rain = 0
KHA3 071213Z 36024KT 02/01 A3036 RMK A01 T00180009  RH  094%=      5-min Rain = 0
KHA3 071214Z 36020KT 02/01 A3036 RMK A01 T00180010  RH  094%=      5-min Rain = 0
KHA3 071215Z 36024KT 02/01 A3036 RMK A01 T00180009  RH  094%=      5-min Rain = 0
KHA3 071216Z 36021KT 02/01 A3036 RMK A01 T00180009  RH  094%=      5-min Rain = 0.01
KHA3 071217Z 00024KT 02/01 A3036 RMK A01 T00180009  RH  094%=      5-min Rain = 0
KHA3 071218Z 36021G27KT 02/01 A3036 RMK A01 T00180009  RH  094%=      5-min Rain = 0
KHA3 071219Z 36024KT 02/01 A3036 RMK A01 T00180009  RH  094%=      5-min Rain = 0
KHA3 071220Z 36023KT 02/01 A3036 RMK A01 T00180008  RH  094%=      5-min Rain = 0
KHA3 071221Z 00025KT 02/01 A3036 RMK A01 T00180009  RH  094%=      5-min Rain = 0
KHA3 071222Z 00022KT 02/01 A3036 RMK A01 T00180008  RH  094%=      5-min Rain = 0
KHA3 071223Z 00021G26KT 02/01 A3036 RMK A01 T00170008  RH  094%=      5-min Rain = 0
KHA3 071224Z 00020KT 02/01 A3036 RMK A01 T00170008  RH  094%=      5-min Rain = 0.01
KHA3 071225Z 00018KT 02/01 A3036 RMK A01 T00170009  RH  094%=      5-min Rain = 0
KHA3 071226Z 36022KT 02/01 A3036 RMK A01 T00170009  RH  094%=      5-min Rain = 0
KHA3 071227Z 00023KT 02/01 A3036 RMK A01 T00170009  RH  094%=      5-min Rain = 0
KHA3 071228Z 36021KT 02/01 A3036 RMK A01 T00170009  RH  094%=      5-min Rain = 0
KHA3 071229Z 36019G25KT 02/01 A3036 RMK A01 T00180009  RH  094%=      5-min Rain = 0
KHA3 071230Z 00021KT 02/01 A3036 RMK A01 T00170009  RH  094%=      5-min Rain = 0
KHA3 071231Z 36018KT 02/01 A3036 RMK A01 T00170009  RH  094%=      5-min Rain = 0
KHA3 071232Z 36018G23KT 02/01 A3036 RMK A01 T00180010  RH  095%=      5-min Rain = 0
KHA3 071233Z 00016G21KT 02/01 A3036 RMK A01 T00170010  RH  095%=      5-min Rain = 0
KHA3 071234Z 00019KT 02/01 A3037 RMK A01 T00170010  RH  095%=      5-min Rain = 0
KHA3 071235Z 00020KT 02/01 A3036 RMK A01 T00170010  RH  095%=      5-min Rain = 0
KHA3 071236Z 00022KT 02/01 A3036 RMK A01 T00170010  RH  095%=      5-min Rain = 0
KHA3 071237Z 01019KT 02/01 A3036 RMK A01 T00180010  RH  094%=      5-min Rain = 0
KHA3 071238Z 01022KT 02/01 A3036 RMK A01 T00170009  RH  094%=      5-min Rain = 0.01
KHA3 071239Z 00018KT 02/01 A3037 RMK A01 T00170009  RH  094%=      5-min Rain = 0
KHA3 071240Z 00019G25KT 02/01 A3037 RMK A01 T00170009  RH  094%=      5-min Rain = 0
KHA3 071241Z 00019G24KT 02/01 A3037 RMK A01 T00170009  RH  094%=      5-min Rain = 0
KHA3 071242Z 00020KT 02/01 A3037 RMK A01 T00170008  RH  094%=      5-min Rain = 0
KHA3 071243Z 36019KT 02/01 A3037 RMK A01 T00170008  RH  094%=      5-min Rain = 0
KHA3 071244Z 35018KT 02/01 A3038 RMK A01 T00170009  RH  094%=      5-min Rain = 0
KHA3 071245Z 00020KT 02/01 A3038 RMK A01 T00170009  RH  094%=      5-min Rain = 0
KHA3 071246Z 36020KT 02/01 A3038 RMK A01 T00170008  RH  094%=      5-min Rain = 0
KHA3 071247Z 36016G24KT 02/01 A3039 RMK A01 T00170009  RH  094%=      5-min Rain = 0.01
KHA3 071248Z 36019KT 02/01 A3039 RMK A01 T00170009  RH  094%=      5-min Rain = 0
KHA3 071249Z 36018KT 02/01 A3039 RMK A01 T00170009  RH  094%=      5-min Rain = 0
KHA3 071250Z 36018KT 02/01 A3039 RMK A01 T00170009  RH  094%=      5-min Rain = 0
KHA3 071251Z 36016KT 02/01 A304 RMK A01 T00170009  RH  094%=      5-min Rain = 0
KHA3 071252Z 35018G24KT 02/01 A304 RMK A01 T00170009  RH  094%=      5-min Rain = 0
KHA3 071253Z 35018KT 02/01 A304 RMK A01 T00180009  RH  094%=      5-min Rain = 0
KHA3 071254Z 36017KT 02/01 A304 RMK A01 T00170009  RH  094%=      5-min Rain = 0
KHA3 071255Z 00017KT 02/01 A304 RMK A01 T00170009  RH  094%=      5-min Rain = 0
KHA3 071256Z 00019KT 02/01 A304 RMK A01 T00170009  RH  094%=      5-min Rain = 0
KHA3 071257Z 00016G21KT 02/01 A304 RMK A01 T00170009  RH  094%=      5-min Rain = 0
KHA3 071258Z 36015KT 02/01 A304 RMK A01 T00180009  RH  094%=      5-min Rain = 0.01
KHA3 071259Z 36014KT 02/01 A304 RMK A01 T00170010  RH  095%=      5-min Rain = 0
KHA3 071300Z 36015KT 02/01 A304 RMK A01 T00170010  RH  095%=      5-min Rain = 0
KHA3 071301Z 35014KT 02/01 A304 RMK A01 T00180011  RH  095%=      5-min Rain = 0
KHA3 071302Z 35016KT 02/01 A3041 RMK A01 T00180012  RH  096%=      5-min Rain = 0
KHA3 071303Z 34016KT 02/01 A3041 RMK A01 T00180012  RH  096%=      5-min Rain = 0
KHA3 071304Z 35014KT 02/01 A3041 RMK A01 T00180012  RH  096%=      5-min Rain = 0
KHA3 071305Z 35014KT 02/01 A3041 RMK A01 T00180012  RH  096%=      5-min Rain = 0
KHA3 071306Z 34015G21KT 02/01 A3041 RMK A01 T00180012  RH  096%=      5-min Rain = 0.01
KHA3 071307Z 34019KT 02/01 A3041 RMK A01 T00170011  RH  096%=      5-min Rain = 0
KHA3 071308Z 35015KT 02/01 A3041 RMK A01 T00170010  RH  095%=      5-min Rain = 0
KHA3 071309Z 35018KT 02/01 A3041 RMK A01 T00170010  RH  095%=      5-min Rain = 0
KHA3 071310Z 36018KT 02/01 A3041 RMK A01 T00180010  RH  095%=      5-min Rain = 0
KHA3 071311Z 00016KT 02/01 A3041 RMK A01 T00170009  RH  095%=      5-min Rain = 0
KHA3 071312Z 35012KT 02/01 A3042 RMK A01 T00170010  RH  095%=      5-min Rain = 0
KHA3 071313Z 35015G21KT 02/01 A3042 RMK A01 T00170010  RH  095%=      5-min Rain = 0
KHA3 071314Z 35016KT 02/01 A3042 RMK A01 T00170010  RH  095%=      5-min Rain = 0
KHA3 071315Z 35017G25KT 02/01 A3042 RMK A01 T00170010  RH  095%=      5-min Rain = 0
KHA3 071316Z 00020KT 02/01 A3041 RMK A01 T00160009  RH  095%=      5-min Rain = 0
KHA3 071317Z 36020KT 02/01 A3042 RMK A01 T00160009  RH  095%=      5-min Rain = 0
KHA3 071318Z 36021KT 02/01 A3041 RMK A01 T00160008  RH  094%=      5-min Rain = 0.01
KHA3 071319Z 00019KT 02/01 A3041 RMK A01 T00160007  RH  094%=      5-min Rain = 0
KHA3 071320Z 00022KT 02/01 A3041 RMK A01 T00160007  RH  094%=      5-min Rain = 0
KHA3 071321Z 00021G27KT 02/01 A3041 RMK A01 T00150006  RH  093%=      5-min Rain = 0
KHA3 071322Z 01020KT 02/01 A3041 RMK A01 T00150005  RH  093%=      5-min Rain = 0
KHA3 071323Z 00015KT 02/01 A3041 RMK A01 T00150006  RH  094%=      5-min Rain = 0
KHA3 071324Z 00019KT 02/01 A3041 RMK A01 T00150006  RH  094%=      5-min Rain = 0
KHA3 071325Z 00017KT 02/01 A3041 RMK A01 T00150006  RH  094%=      5-min Rain = 0
KHA3 071326Z 00016KT 02/01 A3041 RMK A01 T00150006  RH  094%=      5-min Rain = 0.01
KHA3 071327Z 01016KT 02/01 A3041 RMK A01 T00150007  RH  095%=      5-min Rain = 0
KHA3 071328Z 00017KT 01/01 A3041 RMK A01 T00140007  RH  095%=      5-min Rain = 0
KHA3 071329Z 00015KT 01/01 A3041 RMK A01 T00140007  RH  095%=      5-min Rain = 0
KHA3 071330Z 00016KT 02/01 A3041 RMK A01 T00150008  RH  095%=      5-min Rain = 0
KHA3 071331Z 01016KT 02/01 A3041 RMK A01 T00150008  RH  095%=      5-min Rain = 0
KHA3 071332Z 01017G22KT 02/01 A304 RMK A01 T00150008  RH  095%=      5-min Rain = 0
KHA3 071333Z 01019KT 02/01 A304 RMK A01 T00150008  RH  095%=      5-min Rain = 0
KHA3 071334Z 00015KT 01/01 A304 RMK A01 T00140007  RH  095%=      5-min Rain = 0
KHA3 071335Z 01015KT 01/01 A304 RMK A01 T00140007  RH  095%=      5-min Rain = 0
KHA3 071336Z 36014KT 02/01 A304 RMK A01 T00150008  RH  095%=      5-min Rain = 0
KHA3 071337Z 00014KT 02/01 A304 RMK A01 T00150008  RH  096%=      5-min Rain = 0
KHA3 071338Z 00015KT 02/01 A304 RMK A01 T00150008  RH  096%=      5-min Rain = 0.01
KHA3 071339Z 00014KT 02/01 A304 RMK A01 T00150009  RH  096%=      5-min Rain = 0
KHA3 071340Z 00019KT 02/01 A304 RMK A01 T00150009  RH  096%=      5-min Rain = 0
KHA3 071341Z 00019KT 01/01 A3041 RMK A01 T00140008  RH  095%=      5-min Rain = 0
KHA3 071342Z 00020KT 01/01 A3041 RMK A01 T00140007  RH  095%=      5-min Rain = 0
KHA3 071343Z 00014KT 01/01 A3041 RMK A01 T00140007  RH  095%=      5-min Rain = 0
KHA3 071344Z 00014KT 01/01 A3041 RMK A01 T00140007  RH  095%=      5-min Rain = 0
KHA3 071345Z 00014KT 01/01 A3041 RMK A01 T00140007  RH  095%=      5-min Rain = 0
KHA3 071346Z 36019KT 01/01 A3041 RMK A01 T00140008  RH  095%=      5-min Rain = 0
KHA3 071347Z 01018KT 01/01 A3041 RMK A01 T00140007  RH  095%=      5-min Rain = 0
KHA3 071348Z 01018KT 01/01 A3041 RMK A01 T00140006  RH  095%=      5-min Rain = 0
KHA3 071349Z 01016KT 01/01 A3041 RMK A01 T00140006  RH  095%=      5-min Rain = 0
KHA3 071350Z 01014KT 01/01 A3041 RMK A01 T00140006  RH  095%=      5-min Rain = 0
KHA3 071351Z 01017KT 01/01 A3041 RMK A01 T00140007  RH  095%=      5-min Rain = 0.01
KHA3 071352Z 00016KT 01/01 A3041 RMK A01 T00140007  RH  095%=      5-min Rain = 0
KHA3 071353Z 01014KT 01/01 A3041 RMK A01 T00140007  RH  095%=      5-min Rain = 0
KHA3 071354Z 01015KT 01/01 A3041 RMK A01 T00140007  RH  095%=      5-min Rain = 0
KHA3 071355Z 36014KT 01/01 A3042 RMK A01 T00140007  RH  096%=      5-min Rain = 0
KHA3 071356Z 00011KT 01/01 A3042 RMK A01 T00140008  RH  096%=      5-min Rain = 0
KHA3 071357Z 00011KT 01/01 A3042 RMK A01 T00140008  RH  096%=      5-min Rain = 0
KHA3 071358Z 01011KT 01/01 A3042 RMK A01 T00140008  RH  096%=      5-min Rain = 0
KHA3 071359Z 36014KT 01/01 A3042 RMK A01 T00140009  RH  096%=      5-min Rain = 0
KHA3 071400Z 00014KT 01/01 A3042 RMK A01 T00140009  RH  097%=      5-min Rain = 0
KHA3 071401Z 00014KT 01/01 A3042 RMK A01 T00140008  RH  096%=      5-min Rain = 0
KHA3 071402Z 00015KT 01/01 A3042 RMK A01 T00130008  RH  096%=      5-min Rain = 0
KHA3 071403Z 00018KT 01/01 A3042 RMK A01 T00130008  RH  096%=      5-min Rain = 0
KHA3 071404Z 01016KT 01/01 A3042 RMK A01 T00130007  RH  096%=      5-min Rain = 0
KHA3 071405Z 00019KT 01/01 A3042 RMK A01 T00130007  RH  096%=      5-min Rain = 0
KHA3 071406Z 36016KT 01/01 A3042 RMK A01 T00130006  RH  096%=      5-min Rain = 0
KHA3 071407Z 00013KT 01/01 A3043 RMK A01 T00130007  RH  096%=      5-min Rain = 0
KHA3 071408Z 00015KT 01/01 A3042 RMK A01 T00130007  RH  096%=      5-min Rain = 0
KHA3 071409Z 00015KT 01/01 A3042 RMK A01 T00130007  RH  096%=      5-min Rain = 0
KHA3 071410Z 00019KT 01/01 A3042 RMK A01 T00130007  RH  096%=      5-min Rain = 0
KHA3 071411Z 36016KT 01/01 A3043 RMK A01 T00130006  RH  095%=      5-min Rain = 0.01
KHA3 071412Z 35018KT 01/01 A3043 RMK A01 T00130006  RH  095%=      5-min Rain = 0
KHA3 071413Z 00018KT 01/01 A3043 RMK A01 T00120005  RH  095%=      5-min Rain = 0
KHA3 071414Z 36018KT 01/01 A3043 RMK A01 T00120005  RH  095%=      5-min Rain = 0
KHA3 071415Z 35018KT 01/01 A3043 RMK A01 T00120005  RH  095%=      5-min Rain = 0
KHA3 071416Z 00017KT 01/01 A3043 RMK A01 T00120005  RH  095%=      5-min Rain = 0
KHA3 071417Z 00017KT 01/01 A3043 RMK A01 T00120005  RH  095%=      5-min Rain = 0
KHA3 071418Z 36017KT 01/01 A3043 RMK A01 T00120005  RH  095%=      5-min Rain = 0
KHA3 071419Z 36015KT 01/01 A3043 RMK A01 T00120005  RH  095%=      5-min Rain = 0
KHA3 071420Z 35016KT 01/01 A3044 RMK A01 T00120006  RH  095%=      5-min Rain = 0
KHA3 071421Z 36018KT 01/01 A3044 RMK A01 T00120006  RH  095%=      5-min Rain = 0
KHA3 071422Z 36017KT 01/01 A3044 RMK A01 T00120005  RH  095%=      5-min Rain = 0
KHA3 071423Z 36016KT 01/01 A3044 RMK A01 T00130006  RH  095%=      5-min Rain = 0.01
KHA3 071424Z 35015KT 01/01 A3044 RMK A01 T00120005  RH  095%=      5-min Rain = 0
KHA3 071425Z 00017KT 01/01 A3044 RMK A01 T00120005  RH  095%=      5-min Rain = 0
KHA3 071426Z 00016KT 01/01 A3044 RMK A01 T00120006  RH  095%=      5-min Rain = 0
KHA3 071427Z 00017KT 01/01 A3044 RMK A01 T00120006  RH  095%=      5-min Rain = 0
KHA3 071428Z 00018KT 01/01 A3044 RMK A01 T00120005  RH  095%=      5-min Rain = 0
KHA3 071429Z 00015KT 01/01 A3044 RMK A01 T00120005  RH  095%=      5-min Rain = 0
KHA3 071430Z 00016KT 01/01 A3044 RMK A01 T00120005  RH  095%=      5-min Rain = 0
KHA3 071431Z 00016KT 01/01 A3044 RMK A01 T00120005  RH  095%=      5-min Rain = 0
KHA3 071432Z 00014KT 01/01 A3044 RMK A01 T00120005  RH  095%=      5-min Rain = 0
KHA3 071433Z 00014KT 01/01 A3044 RMK A01 T00120005  RH  095%=      5-min Rain = 0
KHA3 071434Z 01012KT 01/01 A3043 RMK A01 T00120005  RH  095%=      5-min Rain = 0
KHA3 071435Z 00014KT 01/01 A3043 RMK A01 T00120006  RH  096%=      5-min Rain = 0
KHA3 071436Z 00016KT 01/01 A3043 RMK A01 T00120006  RH  096%=      5-min Rain = 0
KHA3 071437Z 01014KT 01/01 A3043 RMK A01 T00120006  RH  096%=      5-min Rain = 0
KHA3 071438Z 01014KT 01/01 A3044 RMK A01 T00130006  RH  096%=      5-min Rain = 0
KHA3 071439Z 01017KT 01/01 A3044 RMK A01 T00120006  RH  096%=      5-min Rain = 0
KHA3 071440Z 36013KT 01/01 A3044 RMK A01 T00120006  RH  096%=      5-min Rain = 0
KHA3 071441Z 00014KT 01/01 A3045 RMK A01 T00130006  RH  096%=      5-min Rain = 0
KHA3 071442Z 36014KT 01/01 A3045 RMK A01 T00120006  RH  096%=      5-min Rain = 0
KHA3 071443Z 35015KT 01/01 A3045 RMK A01 T00120006  RH  096%=      5-min Rain = 0
KHA3 071444Z 35016KT 01/01 A3045 RMK A01 T00120006  RH  095%=      5-min Rain = 0
KHA3 071445Z 36015KT 01/01 A3045 RMK A01 T00120005  RH  095%=      5-min Rain = 0
KHA3 071446Z 35014KT 01/01 A3045 RMK A01 T00120006  RH  095%=      5-min Rain = 0.01
KHA3 071447Z 36016KT 01/01 A3045 RMK A01 T00120006  RH  095%=      5-min Rain = 0
KHA3 071448Z 36015KT 01/01 A3045 RMK A01 T00120006  RH  095%=      5-min Rain = 0
KHA3 071449Z 35016KT 01/01 A3046 RMK A01 T00120005  RH  095%=      5-min Rain = 0
KHA3 071450Z 36014KT 01/01 A3046 RMK A01 T00120005  RH  095%=      5-min Rain = 0
KHA3 071451Z 35015KT 01/01 A3046 RMK A01 T00120005  RH  095%=      5-min Rain = 0
KHA3 071452Z 36018KT 01/01 A3046 RMK A01 T00120005  RH  095%=      5-min Rain = 0
KHA3 071453Z 35016KT 01/01 A3047 RMK A01 T00120005  RH  095%=      5-min Rain = 0
KHA3 071454Z 35019KT 01/01 A3047 RMK A01 T00120005  RH  095%=      5-min Rain = 0
KHA3 071455Z 35017KT 01/01 A3047 RMK A01 T00130005  RH  095%=      5-min Rain = 0
KHA3 071456Z 35017KT 01/01 A3047 RMK A01 T00130005  RH  095%=      5-min Rain = 0
KHA3 071457Z 35018KT 01/01 A3047 RMK A01 T00130005  RH  094%=      5-min Rain = 0
KHA3 071458Z 36017KT 01/01 A3047 RMK A01 T00130005  RH  094%=      5-min Rain = 0
KHA3 071459Z 35015G20KT 01/00 A3047 RMK A01 T00130004  RH  094%=      5-min Rain = 0
KHA3 071500Z 36015KT 01/00 A3047 RMK A01 T00130004  RH  094%=      5-min Rain = 0
KHA3 071501Z 35016KT 01/00 A3047 RMK A01 T00130004  RH  094%=      5-min Rain = 0
KHA3 071502Z 00017KT 01/00 A3047 RMK A01 T00130004  RH  094%=      5-min Rain = 0
KHA3 071503Z 36014KT 01/00 A3046 RMK A01 T00130004  RH  094%=      5-min Rain = 0
KHA3 071504Z 36016KT 01/00 A3046 RMK A01 T00130004  RH  094%=      5-min Rain = 0
KHA3 071505Z 36017KT 01/01 A3046 RMK A01 T00130005  RH  094%=      5-min Rain = 0
KHA3 071506Z 00011KT 01/01 A3046 RMK A01 T00130005  RH  094%=      5-min Rain = 0
KHA3 071507Z 01014KT 01/01 A3046 RMK A01 T00140006  RH  095%=      5-min Rain = 0
KHA3 071508Z 01013KT 01/01 A3046 RMK A01 T00140007  RH  095%=      5-min Rain = 0
KHA3 071509Z 00013KT 01/01 A3046 RMK A01 T00140006  RH  095%=      5-min Rain = 0
KHA3 071510Z 00014KT 01/01 A3046 RMK A01 T00130006  RH  095%=      5-min Rain = 0
KHA3 071511Z 00013KT 01/01 A3046 RMK A01 T00140006  RH  095%=      5-min Rain = 0
KHA3 071512Z 36014KT 01/01 A3046 RMK A01 T00140007  RH  095%=      5-min Rain = 0
KHA3 071513Z 36014KT 01/01 A3046 RMK A01 T00140007  RH  095%=      5-min Rain = 0
KHA3 071514Z 00014KT 01/01 A3046 RMK A01 T00140007  RH  095%=      5-min Rain = 0
KHA3 071515Z 00013KT 01/01 A3046 RMK A01 T00140007  RH  095%=      5-min Rain = 0
KHA3 071516Z 35012KT 01/01 A3047 RMK A01 T00140007  RH  095%=      5-min Rain = 0
KHA3 071517Z 35013KT 02/01 A3047 RMK A01 T00150008  RH  095%=      5-min Rain = 0
KHA3 071518Z 35015KT 02/01 A3047 RMK A01 T00150008  RH  095%=      5-min Rain = 0
KHA3 071519Z 35016KT 01/01 A3047 RMK A01 T00140007  RH  095%=      5-min Rain = 0
KHA3 071520Z 36016KT 01/01 A3047 RMK A01 T00140006  RH  094%=      5-min Rain = 0
KHA3 071521Z 36016KT 01/01 A3047 RMK A01 T00140006  RH  094%=      5-min Rain = 0
KHA3 071522Z 36014KT 01/01 A3047 RMK A01 T00140006  RH  094%=      5-min Rain = 0
KHA3 071523Z 35014KT 02/01 A3047 RMK A01 T00150007  RH  095%=      5-min Rain = 0
KHA3 071524Z 35014KT 02/01 A3047 RMK A01 T00150007  RH  095%=      5-min Rain = 0
KHA3 071525Z 34016KT 02/01 A3047 RMK A01 T00150007  RH  095%=      5-min Rain = 0
KHA3 071526Z 35016KT 02/01 A3048 RMK A01 T00150007  RH  094%=      5-min Rain = 0
KHA3 071527Z 35015KT 02/01 A3048 RMK A01 T00150006  RH  094%=      5-min Rain = 0
KHA3 071528Z 35017KT 02/01 A3048 RMK A01 T00150006  RH  094%=      5-min Rain = 0
KHA3 071529Z 35015KT 02/01 A3048 RMK A01 T00150006  RH  094%=      5-min Rain = 0
KHA3 071530Z 36014G19KT 02/01 A3048 RMK A01 T00150006  RH  094%=      5-min Rain = 0
KHA3 071531Z 35017KT 02/01 A3048 RMK A01 T00150007  RH  094%=      5-min Rain = 0
KHA3 071532Z 35018KT 02/01 A3048 RMK A01 T00150006  RH  094%=      5-min Rain = 0
KHA3 071533Z 35017G23KT 02/01 A3048 RMK A01 T00150006  RH  094%=      5-min Rain = 0
KHA3 071534Z 36016KT 02/01 A3048 RMK A01 T00150006  RH  094%=      5-min Rain = 0
KHA3 071535Z 00015G20KT 02/01 A3048 RMK A01 T00150006  RH  094%=      5-min Rain = 0
KHA3 071536Z 35018KT 02/01 A3048 RMK A01 T00160007  RH  094%=      5-min Rain = 0
KHA3 071537Z 35019G24KT 02/01 A3048 RMK A01 T00150006  RH  094%=      5-min Rain = 0
KHA3 071538Z 00021G26KT 02/01 A3048 RMK A01 T00150005  RH  093%=      5-min Rain = 0
KHA3 071539Z 00022KT 02/00 A3047 RMK A01 T00150004  RH  092%=      5-min Rain = 0
KHA3 071540Z 01021KT 02/00 A3047 RMK A01 T00150003  RH  092%=      5-min Rain = 0
KHA3 071541Z 00020KT 02/00 A3047 RMK A01 T00150002  RH  092%=      5-min Rain = 0
KHA3 071542Z 01019G24KT 02/00 A3047 RMK A01 T00150003  RH  092%=      5-min Rain = 0
KHA3 071543Z 36019KT 02/00 A3047 RMK A01 T00150003  RH  092%=      5-min Rain = 0
KHA3 071544Z 36020G26KT 02/00 A3047 RMK A01 T00150003  RH  092%=      5-min Rain = 0
KHA3 071545Z 36020G25KT 02/00 A3047 RMK A01 T00150003  RH  092%=      5-min Rain = 0
KHA3 071546Z 36020KT 01/00 A3047 RMK A01 T00140003  RH  092%=      5-min Rain = 0
KHA3 071547Z 00017KT 02/00 A3047 RMK A01 T00150004  RH  092%=      5-min Rain = 0
KHA3 071548Z 00019KT 02/00 A3047 RMK A01 T00150004  RH  093%=      5-min Rain = 0
KHA3 071549Z 00021G26KT 02/00 A3047 RMK A01 T00150004  RH  093%=      5-min Rain = 0
KHA3 071550Z 00019KT 01/00 A3047 RMK A01 T00140004  RH  093%=      5-min Rain = 0
KHA3 071551Z 02016KT 02/00 A3047 RMK A01 T00150004  RH  093%=      5-min Rain = 0
KHA3 071552Z 01019KT 02/01 A3047 RMK A01 T00150005  RH  093%=      5-min Rain = 0
KHA3 071553Z 01017KT 02/00 A3047 RMK A01 T00150004  RH  093%=      5-min Rain = 0
KHA3 071554Z 01020KT 02/01 A3046 RMK A01 T00150005  RH  093%=      5-min Rain = 0
KHA3 071555Z 01020G25KT 02/00 A3046 RMK A01 T00150004  RH  092%=      5-min Rain = 0
KHA3 071556Z 01018G23KT 02/00 A3046 RMK A01 T00150004  RH  092%=      5-min Rain = 0
KHA3 071557Z 01020KT 02/00 A3046 RMK A01 T00150004  RH  092%=      5-min Rain = 0
KHA3 071558Z 02019KT 02/00 A3046 RMK A01 T00150004  RH  092%=      5-min Rain = 0
KHA3 071559Z 01016KT 02/01 A3046 RMK A01 T00150005  RH  093%=      5-min Rain = 0
KHA3 071600Z 01014KT 02/01 A3045 RMK A01 T00150005  RH  093%=      5-min Rain = 0
KHA3 071601Z 02017KT 02/01 A3045 RMK A01 T00150006  RH  094%=      5-min Rain = 0
KHA3 071602Z 01016KT 02/01 A3045 RMK A01 T00150006  RH  093%=      5-min Rain = 0
KHA3 071603Z 02017KT 02/01 A3045 RMK A01 T00150006  RH  093%=      5-min Rain = 0
KHA3 071604Z 01015KT 02/01 A3045 RMK A01 T00150005  RH  093%=      5-min Rain = 0
KHA3 071605Z 01016KT 02/01 A3046 RMK A01 T00150006  RH  094%=      5-min Rain = 0
KHA3 071606Z 00013KT 02/01 A3046 RMK A01 T00150006  RH  094%=      5-min Rain = 0
KHA3 071607Z 00014KT 02/01 A3045 RMK A01 T00150007  RH  094%=      5-min Rain = 0
KHA3 071608Z 00013KT 02/01 A3045 RMK A01 T00150007  RH  095%=      5-min Rain = 0
KHA3 071609Z 00011KT 02/01 A3045 RMK A01 T00150008  RH  095%=      5-min Rain = 0
KHA3 071610Z 00013KT 02/01 A3045 RMK A01 T00160009  RH  095%=      5-min Rain = 0
KHA3 071611Z 00014KT 02/01 A3045 RMK A01 T00160008  RH  095%=      5-min Rain = 0
KHA3 071612Z 36013G18KT 02/01 A3046 RMK A01 T00150008  RH  095%=      5-min Rain = 0
KHA3 071613Z 00016G22KT 02/01 A3046 RMK A01 T00160008  RH  095%=      5-min Rain = 0
KHA3 071614Z 36014G19KT 02/01 A3046 RMK A01 T00150007  RH  094%=      5-min Rain = 0
KHA3 071615Z 36018KT 02/01 A3046 RMK A01 T00150007  RH  094%=      5-min Rain = 0
KHA3 071616Z 36017KT 02/01 A3046 RMK A01 T00150006  RH  094%=      5-min Rain = 0
KHA3 071617Z 00017KT 02/01 A3046 RMK A01 T00150006  RH  094%=      5-min Rain = 0
KHA3 071618Z 00016KT 02/01 A3047 RMK A01 T00150005  RH  094%=      5-min Rain = 0
KHA3 071619Z 01015KT 02/01 A3047 RMK A01 T00150006  RH  094%=      5-min Rain = 0
KHA3 071620Z 36013KT 02/01 A3047 RMK A01 T00150006  RH  094%=      5-min Rain = 0
KHA3 071621Z 00015KT 02/01 A3047 RMK A01 T00150006  RH  094%=      5-min Rain = 0
KHA3 071622Z 00014KT 02/01 A3048 RMK A01 T00150006  RH  094%=      5-min Rain = 0
KHA3 071623Z 36013KT 02/01 A3048 RMK A01 T00150006  RH  094%=      5-min Rain = 0
KHA3 071624Z 00013KT 02/01 A3048 RMK A01 T00150006  RH  093%=      5-min Rain = 0
KHA3 071625Z 36014KT 02/01 A3049 RMK A01 T00150006  RH  094%=      5-min Rain = 0
KHA3 071626Z 35011G17KT 02/01 A3049 RMK A01 T00150006  RH  094%=      5-min Rain = 0
KHA3 071627Z 35015KT 02/01 A3049 RMK A01 T00160008  RH  094%=      5-min Rain = 0
KHA3 071628Z 35016KT 02/01 A3049 RMK A01 T00160008  RH  094%=      5-min Rain = 0
KHA3 071629Z 36015KT 02/01 A3049 RMK A01 T00150006  RH  094%=      5-min Rain = 0
KHA3 071630Z 00013KT 02/01 A3049 RMK A01 T00150005  RH  093%=      5-min Rain = 0
KHA3 071631Z 36011KT 02/01 A3049 RMK A01 T00150006  RH  094%=      5-min Rain = 0
KHA3 071632Z 35012KT 02/01 A3049 RMK A01 T00160007  RH  094%=      5-min Rain = 0
KHA3 071633Z 35011KT 02/01 A3049 RMK A01 T00160008  RH  095%=      5-min Rain = 0
KHA3 071634Z 34013KT 02/01 A3049 RMK A01 T00160008  RH  095%=      5-min Rain = 0
KHA3 071635Z 34011KT 02/01 A3049 RMK A01 T00160008  RH  094%=      5-min Rain = 0
KHA3 071636Z 34013KT 02/01 A3049 RMK A01 T00160008  RH  094%=      5-min Rain = 0
KHA3 071637Z 34014KT 02/01 A305 RMK A01 T00160007  RH  094%=      5-min Rain = 0
KHA3 071638Z 35015KT 02/01 A305 RMK A01 T00160008  RH  094%=      5-min Rain = 0
KHA3 071639Z 34015KT 02/01 A305 RMK A01 T00160008  RH  095%=      5-min Rain = 0
KHA3 071640Z 35017KT 02/01 A305 RMK A01 T00150007  RH  094%=      5-min Rain = 0
KHA3 071641Z 36016KT 02/01 A305 RMK A01 T00150006  RH  094%=      5-min Rain = 0
KHA3 071642Z 35015KT 02/01 A305 RMK A01 T00150006  RH  094%=      5-min Rain = 0
KHA3 071643Z 35017KT 02/01 A3051 RMK A01 T00150006  RH  094%=      5-min Rain = 0
KHA3 071644Z 35016KT 02/01 A305 RMK A01 T00150006  RH  094%=      5-min Rain = 0
KHA3 071645Z 36013KT 02/01 A305 RMK A01 T00150007  RH  094%=      5-min Rain = 0
KHA3 071646Z 36014KT 02/01 A305 RMK A01 T00150007  RH  095%=      5-min Rain = 0
KHA3 071647Z 36013KT 01/01 A305 RMK A01 T00140007  RH  095%=      5-min Rain = 0
KHA3 071648Z 00018KT 01/01 A305 RMK A01 T00140006  RH  095%=      5-min Rain = 0
KHA3 071649Z 00014KT 01/01 A305 RMK A01 T00140005  RH  094%=      5-min Rain = 0
KHA3 071650Z 00015KT 01/01 A3049 RMK A01 T00140006  RH  095%=      5-min Rain = 0
KHA3 071651Z 36012KT 01/01 A3049 RMK A01 T00140006  RH  095%=      5-min Rain = 0
KHA3 071652Z 00015KT 01/01 A3049 RMK A01 T00140007  RH  095%=      5-min Rain = 0
KHA3 071653Z 00014KT 01/01 A3049 RMK A01 T00140007  RH  095%=      5-min Rain = 0
KHA3 071654Z 00015KT 01/01 A3049 RMK A01 T00140007  RH  095%=      5-min Rain = 0
KHA3 071655Z 00014KT 01/01 A3049 RMK A01 T00140007  RH  095%=      5-min Rain = 0
KHA3 071656Z 36017KT 01/01 A3049 RMK A01 T00140007  RH  095%=      5-min Rain = 0
KHA3 071657Z 00014KT 01/01 A3049 RMK A01 T00140007  RH  095%=      5-min Rain = 0
KHA3 071658Z 01015G20KT 01/01 A3049 RMK A01 T00140007  RH  095%=      5-min Rain = 0
KHA3 071659Z 36015KT 01/01 A3049 RMK A01 T00140007  RH  095%=      5-min Rain = 0
KHA3 071700Z 35013KT 01/01 A3049 RMK A01 T00140007  RH  095%=      5-min Rain = 0
KHA3 071701Z 36012KT 02/01 A3049 RMK A01 T00150008  RH  095%=      5-min Rain = 0
KHA3 071702Z 00012KT 02/01 A3049 RMK A01 T00150009  RH  095%=      5-min Rain = 0
KHA3 071703Z 36012KT 02/01 A3049 RMK A01 T00150009  RH  095%=      5-min Rain = 0
KHA3 071704Z 35011G17KT 02/01 A3049 RMK A01 T00150009  RH  096%=      5-min Rain = 0
KHA3 071705Z 35016KT 02/01 A3049 RMK A01 T00150009  RH  096%=      5-min Rain = 0
KHA3 071706Z 36015KT 02/01 A3049 RMK A01 T00150008  RH  095%=      5-min Rain = 0
KHA3 071707Z 35013KT 02/01 A3049 RMK A01 T00150008  RH  095%=      5-min Rain = 0
KHA3 071708Z 36012KT 02/01 A305 RMK A01 T00150009  RH  096%=      5-min Rain = 0
KHA3 071709Z 35013G19KT 02/01 A3049 RMK A01 T00150010  RH  096%=      5-min Rain = 0
KHA3 071710Z 35018KT 02/01 A3049 RMK A01 T00150009  RH  096%=      5-min Rain = 0
KHA3 071711Z 35015KT 01/01 A3049 RMK A01 T00140007  RH  096%=      5-min Rain = 0
KHA3 071712Z 35015KT 01/01 A3049 RMK A01 T00140008  RH  096%=      5-min Rain = 0
KHA3 071713Z 35015KT 01/01 A3049 RMK A01 T00140007  RH  096%=      5-min Rain = 0
KHA3 071714Z 35016KT 01/01 A3049 RMK A01 T00140008  RH  096%=      5-min Rain = 0
KHA3 071715Z 35019KT 01/01 A3049 RMK A01 T00140008  RH  096%=      5-min Rain = 0
KHA3 071716Z 35018KT 01/01 A305 RMK A01 T00140007  RH  095%=      5-min Rain = 0
KHA3 071717Z 35018G23KT 01/01 A305 RMK A01 T00130006  RH  095%=      5-min Rain = 0
KHA3 071718Z 35018KT 01/01 A305 RMK A01 T00130006  RH  095%=      5-min Rain = 0
KHA3 071719Z 36017KT 01/01 A305 RMK A01 T00130006  RH  095%=      5-min Rain = 0
KHA3 071720Z 00015KT 01/01 A305 RMK A01 T00130006  RH  095%=      5-min Rain = 0
KHA3 071721Z 00017KT 01/01 A305 RMK A01 T00130007  RH  095%=      5-min Rain = 0
KHA3 071722Z 00015KT 01/01 A305 RMK A01 T00130006  RH  095%=      5-min Rain = 0
KHA3 071723Z 00015KT 01/01 A305 RMK A01 T00120006  RH  095%=      5-min Rain = 0
KHA3 071724Z 36017KT 01/01 A305 RMK A01 T00120006  RH  095%=      5-min Rain = 0
KHA3 071725Z 00016KT 01/00 A305 RMK A01 T00120004  RH  095%=      5-min Rain = 0
KHA3 071726Z 36015KT 01/00 A305 RMK A01 T00110004  RH  095%=      5-min Rain = 0
KHA3 071727Z 00015KT 01/00 A305 RMK A01 T00120004  RH  095%=      5-min Rain = 0
KHA3 071728Z 36017KT 01/00 A305 RMK A01 T00110004  RH  095%=      5-min Rain = 0
KHA3 071729Z 36014KT 01/00 A3051 RMK A01 T00120004  RH  095%=      5-min Rain = 0
KHA3 071730Z 36017KT 01/01 A3051 RMK A01 T00120005  RH  095%=      5-min Rain = 0
KHA3 071731Z 36013KT 01/01 A3051 RMK A01 T00120005  RH  095%=      5-min Rain = 0
KHA3 071732Z 00012KT 01/01 A3051 RMK A01 T00120005  RH  095%=      5-min Rain = 0
KHA3 071733Z 36012KT 01/01 A3051 RMK A01 T00130006  RH  095%=      5-min Rain = 0
KHA3 071734Z 36014KT 01/01 A3051 RMK A01 T00130006  RH  095%=      5-min Rain = 0
KHA3 071735Z 36013KT 01/01 A305 RMK A01 T00130006  RH  095%=      5-min Rain = 0
KHA3 071736Z 36014KT 01/01 A305 RMK A01 T00130006  RH  095%=      5-min Rain = 0
KHA3 071737Z 01014KT 01/01 A305 RMK A01 T00120006  RH  095%=      5-min Rain = 0
KHA3 071738Z 00013KT 01/01 A305 RMK A01 T00120006  RH  095%=      5-min Rain = 0
KHA3 071739Z 01016KT 01/01 A305 RMK A01 T00120006  RH  096%=      5-min Rain = 0
KHA3 071740Z 01014G19KT 01/01 A305 RMK A01 T00130006  RH  095%=      5-min Rain = 0
KHA3 071741Z 01014KT 01/01 A305 RMK A01 T00120006  RH  095%=      5-min Rain = 0
KHA3 071742Z 00013KT 01/01 A305 RMK A01 T00120005  RH  095%=      5-min Rain = 0
KHA3 071743Z 00013KT 01/01 A305 RMK A01 T00120006  RH  096%=      5-min Rain = 0
KHA3 071744Z 01013KT 01/01 A305 RMK A01 T00120006  RH  096%=      5-min Rain = 0
KHA3 071745Z 36014KT 01/01 A305 RMK A01 T00120006  RH  096%=      5-min Rain = 0
KHA3 071746Z 00016KT 01/01 A305 RMK A01 T00120006  RH  096%=      5-min Rain = 0
KHA3 071747Z 36015KT 01/01 A305 RMK A01 T00120006  RH  096%=      5-min Rain = 0
KHA3 071748Z 36015KT 01/01 A305 RMK A01 T00120005  RH  096%=      5-min Rain = 0.01
KHA3 071749Z 00016KT 01/01 A305 RMK A01 T00120006  RH  096%=      5-min Rain = 0
KHA3 071750Z 01016KT 01/01 A305 RMK A01 T00120006  RH  096%=      5-min Rain = 0
KHA3 071751Z 01015KT 01/01 A305 RMK A01 T00120006  RH  096%=      5-min Rain = 0
KHA3 071752Z 01013KT 01/01 A305 RMK A01 T00120006  RH  096%=      5-min Rain = 0
KHA3 071753Z 00014KT 01/01 A305 RMK A01 T00120007  RH  096%=      5-min Rain = 0
KHA3 071754Z 00017KT 01/01 A3049 RMK A01 T00120007  RH  096%=      5-min Rain = 0
KHA3 071755Z 01016KT 01/01 A3049 RMK A01 T00120008  RH  097%=      5-min Rain = 0
KHA3 071756Z 00017KT 01/01 A3049 RMK A01 T00120007  RH  097%=      5-min Rain = 0
KHA3 071757Z 36016KT 01/01 A3049 RMK A01 T00120007  RH  097%=      5-min Rain = 0
KHA3 071758Z 36019G25KT 01/01 A3049 RMK A01 T00110007  RH  097%=      5-min Rain = 0
KHA3 071759Z 35018G23KT 01/01 A3049 RMK A01 T00110006  RH  097%=      5-min Rain = 0
KHA3 071800Z 36015G20KT 01/01 A3049 RMK A01 T00110007  RH  097%=      5-min Rain = 0
KHA3 071801Z 35018KT 01/01 A3049 RMK A01 T00120007  RH  097%=      5-min Rain = 0
KHA3 071802Z 35015G20KT 01/01 A3049 RMK A01 T00110006  RH  097%=      5-min Rain = 0
KHA3 071803Z 35014G19KT 01/01 A3049 RMK A01 T00110006  RH  096%=      5-min Rain = 0
KHA3 071804Z 36014KT 01/01 A3049 RMK A01 T00110006  RH  097%=      5-min Rain = 0
KHA3 071805Z 35017KT 01/01 A3049 RMK A01 T00120007  RH  097%=      5-min Rain = 0
KHA3 071806Z 36016KT 01/01 A3049 RMK A01 T00110006  RH  097%=      5-min Rain = 0
KHA3 071807Z 35020KT 01/01 A3049 RMK A01 T00110005  RH  096%=      5-min Rain = 0
KHA3 071808Z 35017KT 01/00 A3049 RMK A01 T00100004  RH  096%=      5-min Rain = 0
KHA3 071809Z 36016G21KT 01/00 A3049 RMK A01 T00100004  RH  096%=      5-min Rain = 0
KHA3 071810Z 35016G21KT 01/01 A305 RMK A01 T00100005  RH  096%=      5-min Rain = 0
KHA3 071811Z 35017KT 01/01 A305 RMK A01 T00110005  RH  096%=      5-min Rain = 0
KHA3 071812Z 00015KT 01/00 A305 RMK A01 T00100004  RH  096%=      5-min Rain = 0
KHA3 071813Z 36014KT 01/00 A305 RMK A01 T00100004  RH  096%=      5-min Rain = 0
KHA3 071814Z 36014KT 01/00 A305 RMK A01 T00100004  RH  096%=      5-min Rain = 0
KHA3 071815Z 35012KT 01/00 A305 RMK A01 T00100004  RH  096%=      5-min Rain = 0
KHA3 071816Z 36013KT 01/01 A3049 RMK A01 T00110006  RH  096%=      5-min Rain = 0
KHA3 071817Z 36013KT 01/01 A3049 RMK A01 T00110006  RH  096%=      5-min Rain = 0
KHA3 071818Z 00013KT 01/01 A3049 RMK A01 T00110006  RH  097%=      5-min Rain = 0
KHA3 071819Z 01013KT 01/01 A3049 RMK A01 T00110006  RH  097%=      5-min Rain = 0
KHA3 071820Z 35014KT 01/01 A3049 RMK A01 T00110006  RH  097%=      5-min Rain = 0
KHA3 071821Z 35014KT 01/01 A3048 RMK A01 T00100005  RH  097%=      5-min Rain = 0
KHA3 071822Z 36012KT 01/01 A3048 RMK A01 T00100005  RH  097%=      5-min Rain = 0
KHA3 071823Z 00013KT 01/01 A3048 RMK A01 T00100006  RH  097%=      5-min Rain = 0
KHA3 071824Z 36015KT 01/01 A3048 RMK A01 T00100006  RH  097%=      5-min Rain = 0
KHA3 071825Z 36017KT 01/01 A3048 RMK A01 T00100006  RH  097%=      5-min Rain = 0
KHA3 071826Z 36018KT 01/01 A3048 RMK A01 T00090005  RH  097%=      5-min Rain = 0
KHA3 071827Z 36018KT 01/00 A3048 RMK A01 T00080003  RH  097%=      5-min Rain = 0
KHA3 071828Z 00017KT 01/00 A3048 RMK A01 T00080003  RH  096%=      5-min Rain = 0
KHA3 071829Z 36016KT 01/00 A3048 RMK A01 T00080003  RH  096%=      5-min Rain = 0
KHA3 071830Z 00018KT 01/00 A3048 RMK A01 T00080002  RH  096%=      5-min Rain = 0
KHA3 071831Z 36018KT 01/00 A3048 RMK A01 T00080002  RH  096%=      5-min Rain = 0
KHA3 071832Z 36018KT 01/00 A3048 RMK A01 T00080002  RH  096%=      5-min Rain = 0
KHA3 071833Z 36016KT 01/00 A3048 RMK A01 T00080001  RH  096%=      5-min Rain = 0
KHA3 071834Z 36015KT 01/00 A3048 RMK A01 T00080001  RH  096%=      5-min Rain = 0
KHA3 071835Z 36017KT 01/00 A3048 RMK A01 T00080002  RH  096%=      5-min Rain = 0
KHA3 071836Z 36015KT 01/00 A3048 RMK A01 T00080002  RH  096%=      5-min Rain = 0
KHA3 071837Z 36016KT 01/00 A3048 RMK A01 T00080002  RH  096%=      5-min Rain = 0
KHA3 071838Z 35014KT 01/00 A3048 RMK A01 T00080002  RH  096%=      5-min Rain = 0
KHA3 071839Z 36013KT 01/00 A3048 RMK A01 T00090003  RH  096%=      5-min Rain = 0
KHA3 071840Z 36016G21KT 01/00 A3048 RMK A01 T00090003  RH  096%=      5-min Rain = 0
KHA3 071841Z 35016KT 01/00 A3047 RMK A01 T00090003  RH  096%=      5-min Rain = 0
KHA3 071842Z 00016KT 01/00 A3047 RMK A01 T00090003  RH  096%=      5-min Rain = 0
KHA3 071843Z 00013KT 01/00 A3047 RMK A01 T00090003  RH  096%=      5-min Rain = 0
KHA3 071844Z 36011KT 01/00 A3047 RMK A01 T00100004  RH  096%=      5-min Rain = 0
KHA3 071845Z 36013KT 01/01 A3047 RMK A01 T00110005  RH  096%=      5-min Rain = 0
KHA3 071846Z 36015KT 01/01 A3047 RMK A01 T00100006  RH  097%=      5-min Rain = 0
KHA3 071847Z 35017KT 01/01 A3047 RMK A01 T00100005  RH  097%=      5-min Rain = 0
KHA3 071848Z 35015KT 01/01 A3047 RMK A01 T00100005  RH  096%=      5-min Rain = 0
KHA3 071849Z 36016KT 01/00 A3047 RMK A01 T00100004  RH  096%=      5-min Rain = 0
KHA3 071850Z 36015KT 01/00 A3047 RMK A01 T00100004  RH  096%=      5-min Rain = 0
KHA3 071851Z 35016KT 01/00 A3047 RMK A01 T00090004  RH  096%=      5-min Rain = 0
KHA3 071852Z 35015KT 01/00 A3047 RMK A01 T00100004  RH  096%=      5-min Rain = 0
KHA3 071853Z 35015KT 01/00 A3047 RMK A01 T00090004  RH  096%=      5-min Rain = 0
KHA3 071854Z 36013KT 01/00 A3047 RMK A01 T00090003  RH  096%=      5-min Rain = 0
KHA3 071855Z 36014KT 01/00 A3047 RMK A01 T00090003  RH  096%=      5-min Rain = 0
KHA3 071856Z 34015KT 01/00 A3047 RMK A01 T00090004  RH  096%=      5-min Rain = 0
KHA3 071857Z 34015KT 01/00 A3047 RMK A01 T00090004  RH  096%=      5-min Rain = 0
KHA3 071858Z 34015KT 01/00 A3047 RMK A01 T00090004  RH  096%=      5-min Rain = 0
KHA3 071859Z 34017KT 01/00 A3047 RMK A01 T00090004  RH  096%=      5-min Rain = 0
KHA3 071900Z 35015KT 01/00 A3047 RMK A01 T00090003  RH  096%=      5-min Rain = 0
KHA3 071901Z 35017KT 01/00 A3047 RMK A01 T00080003  RH  096%=      5-min Rain = 0
KHA3 071902Z 35015KT 01/00 A3047 RMK A01 T00090003  RH  096%=      5-min Rain = 0
KHA3 071903Z 35018KT 01/00 A3047 RMK A01 T00080002  RH  096%=      5-min Rain = 0
KHA3 071904Z 35015KT 01/00 A3047 RMK A01 T00080002  RH  095%=      5-min Rain = 0
KHA3 071905Z 36014KT 01/00 A3047 RMK A01 T00080002  RH  095%=      5-min Rain = 0
KHA3 071906Z 00015KT 01/00 A3047 RMK A01 T00080002  RH  095%=      5-min Rain = 0
KHA3 071907Z 01015KT 01/00 A3047 RMK A01 T00080001  RH  095%=      5-min Rain = 0
KHA3 071908Z 00014KT 01/00 A3047 RMK A01 T00080001  RH  095%=      5-min Rain = 0
KHA3 071909Z 00017KT 01/00 A3047 RMK A01 T00080001  RH  095%=      5-min Rain = 0
KHA3 071910Z 36016KT 01/00 A3048 RMK A01 T00080000  RH  094%=      5-min Rain = 0
KHA3 071911Z 00016KT 01/M00 A3048 RMK A01 T00081001  RH  094%=      5-min Rain = 0
KHA3 071912Z 35017KT 01/M00 A3048 RMK A01 T00081001  RH  094%=      5-min Rain = 0
KHA3 071913Z 00012KT 01/M00 A3048 RMK A01 T00081001  RH  094%=      5-min Rain = 0
KHA3 071914Z 00014KT 01/00 A3047 RMK A01 T00080000  RH  094%=      5-min Rain = 0
KHA3 071915Z 01015KT 01/00 A3047 RMK A01 T00080000  RH  095%=      5-min Rain = 0
KHA3 071916Z 00014KT 01/00 A3047 RMK A01 T00080000  RH  095%=      5-min Rain = 0
KHA3 071917Z 00012KT 01/00 A3046 RMK A01 T00080001  RH  095%=      5-min Rain = 0
KHA3 071918Z 00013KT 01/00 A3046 RMK A01 T00090002  RH  095%=      5-min Rain = 0
KHA3 071919Z 01014KT 01/00 A3046 RMK A01 T00090002  RH  095%=      5-min Rain = 0
KHA3 071920Z 00015KT 01/00 A3046 RMK A01 T00090002  RH  095%=      5-min Rain = 0
KHA3 071921Z 00014KT 01/00 A3046 RMK A01 T00080001  RH  095%=      5-min Rain = 0
KHA3 071922Z 36014KT 01/00 A3046 RMK A01 T00080002  RH  095%=      5-min Rain = 0
KHA3 071923Z 36016KT 01/00 A3045 RMK A01 T00080002  RH  096%=      5-min Rain = 0
KHA3 071924Z 00016KT 01/00 A3045 RMK A01 T00080001  RH  096%=      5-min Rain = 0
KHA3 071925Z 36014KT 01/00 A3045 RMK A01 T00080001  RH  096%=      5-min Rain = 0
KHA3 071926Z 36014KT 01/00 A3045 RMK A01 T00080001  RH  096%=      5-min Rain = 0
KHA3 071927Z 00015KT 01/00 A3045 RMK A01 T00080002  RH  096%=      5-min Rain = 0
KHA3 071928Z 00014KT 01/00 A3045 RMK A01 T00080002  RH  096%=      5-min Rain = 0
KHA3 071929Z 36013KT 01/00 A3045 RMK A01 T00080002  RH  096%=      5-min Rain = 0
KHA3 071930Z 35012KT 01/00 A3045 RMK A01 T00080002  RH  096%=      5-min Rain = 0
KHA3 071931Z 36014G19KT 01/00 A3045 RMK A01 T00080002  RH  096%=      5-min Rain = 0
KHA3 071932Z 35017KT 01/00 A3045 RMK A01 T00080002  RH  096%=      5-min Rain = 0
KHA3 071933Z 35014KT 01/00 A3045 RMK A01 T00080002  RH  095%=      5-min Rain = 0
KHA3 071934Z 35014G20KT 01/00 A3045 RMK A01 T00080001  RH  095%=      5-min Rain = 0
KHA3 071935Z 35016KT 01/00 A3045 RMK A01 T00080002  RH  095%=      5-min Rain = 0
KHA3 071936Z 35016KT 01/00 A3045 RMK A01 T00090002  RH  095%=      5-min Rain = 0
KHA3 071937Z 36017KT 01/00 A3045 RMK A01 T00090002  RH  095%=      5-min Rain = 0
KHA3 071938Z 36015KT 01/00 A3045 RMK A01 T00090001  RH  094%=      5-min Rain = 0
KHA3 071939Z 36014KT 01/00 A3045 RMK A01 T00090002  RH  095%=      5-min Rain = 0
KHA3 071940Z 35015KT 01/00 A3045 RMK A01 T00100002  RH  094%=      5-min Rain = 0
KHA3 071941Z 35013KT 01/00 A3045 RMK A01 T00100001  RH  094%=      5-min Rain = 0
KHA3 071942Z 00015KT 01/00 A3045 RMK A01 T00100002  RH  094%=      5-min Rain = 0
KHA3 071943Z 34013KT 01/00 A3045 RMK A01 T00090001  RH  094%=      5-min Rain = 0
KHA3 071944Z 34015KT 01/00 A3046 RMK A01 T00100002  RH  095%=      5-min Rain = 0
KHA3 071945Z 34015KT 01/00 A3046 RMK A01 T00090001  RH  094%=      5-min Rain = 0
KHA3 071946Z 35012KT 01/00 A3046 RMK A01 T00090000  RH  094%=      5-min Rain = 0
KHA3 071947Z 35013KT 01/00 A3045 RMK A01 T00090001  RH  094%=      5-min Rain = 0
KHA3 071948Z 35014G20KT 01/00 A3045 RMK A01 T00090002  RH  095%=      5-min Rain = 0
KHA3 071949Z 35015KT 01/00 A3045 RMK A01 T00090001  RH  095%=      5-min Rain = 0
KHA3 071950Z 35016KT 01/00 A3045 RMK A01 T00090000  RH  094%=      5-min Rain = 0
KHA3 071951Z 35015KT 01/M00 A3045 RMK A01 T00081001  RH  094%=      5-min Rain = 0
KHA3 071952Z 35014KT 01/00 A3045 RMK A01 T000800-0  RH  094%=      5-min Rain = 0
KHA3 071953Z 35017KT 01/00 A3045 RMK A01 T00090001  RH  094%=      5-min Rain = 0
KHA3 071954Z 35015KT 01/00 A3045 RMK A01 T00090001  RH  094%=      5-min Rain = 0
KHA3 071955Z 35015KT 01/00 A3045 RMK A01 T00090000  RH  094%=      5-min Rain = 0
KHA3 071956Z 35013KT 01/00 A3045 RMK A01 T000900-0  RH  094%=      5-min Rain = 0
KHA3 071957Z 35013KT 01/00 A3045 RMK A01 T000900-0  RH  094%=      5-min Rain = 0
KHA3 071958Z 36012KT 01/00 A3045 RMK A01 T00090001  RH  094%=      5-min Rain = 0
KHA3 071959Z 35015KT 01/00 A3045 RMK A01 T00100002  RH  094%=      5-min Rain = 0
KHA3 072000Z 35016KT 01/00 A3045 RMK A01 T00100001  RH  094%=      5-min Rain = 0
KHA3 072001Z 35015KT 01/00 A3045 RMK A01 T00100001  RH  093%=      5-min Rain = 0
KHA3 072002Z 35015KT 01/00 A3044 RMK A01 T00100001  RH  093%=      5-min Rain = 0
KHA3 072003Z 35016KT 01/00 A3044 RMK A01 T001000-0  RH  093%=      5-min Rain = 0
KHA3 072004Z 35018KT 01/M00 A3044 RMK A01 T00101001  RH  092%=      5-min Rain = 0
KHA3 072005Z 35015KT 01/M00 A3044 RMK A01 T00091002  RH  092%=      5-min Rain = 0
KHA3 072006Z 36013KT 01/M00 A3044 RMK A01 T00101001  RH  093%=      5-min Rain = 0
KHA3 072007Z 35013KT 01/00 A3044 RMK A01 T00110001  RH  093%=      5-min Rain = 0
KHA3 072008Z 35015KT 01/00 A3044 RMK A01 T00110002  RH  094%=      5-min Rain = 0
KHA3 072009Z 35017KT 01/00 A3044 RMK A01 T001000-0  RH  093%=      5-min Rain = 0
KHA3 072010Z 35016G21KT 01/M00 A3044 RMK A01 T00101001  RH  092%=      5-min Rain = 0
KHA3 072011Z 36015KT 01/M00 A3044 RMK A01 T00101001  RH  092%=      5-min Rain = 0
KHA3 072012Z 36016KT 01/M00 A3044 RMK A01 T00101001  RH  093%=      5-min Rain = 0
KHA3 072013Z 35016KT 01/M00 A3044 RMK A01 T00101001  RH  093%=      5-min Rain = 0
KHA3 072014Z 35018KT 01/M00 A3044 RMK A01 T00101001  RH  093%=      5-min Rain = 0
KHA3 072015Z 35016KT 01/M00 A3044 RMK A01 T00101001  RH  092%=      5-min Rain = 0
KHA3 072016Z 35015KT 01/M00 A3044 RMK A01 T00101001  RH  092%=      5-min Rain = 0
KHA3 072017Z 35017KT 01/M00 A3044 RMK A01 T00111001  RH  092%=      5-min Rain = 0
KHA3 072018Z 36014KT 01/M00 A3044 RMK A01 T00101003  RH  091%=      5-min Rain = 0
KHA3 072019Z 35015KT 01/M00 A3045 RMK A01 T00101002  RH  092%=      5-min Rain = 0
KHA3 072020Z 35014KT 01/M00 A3045 RMK A01 T00101002  RH  092%=      5-min Rain = 0
KHA3 072021Z 34014KT 01/M00 A3045 RMK A01 T00101003  RH  091%=      5-min Rain = 0
KHA3 072022Z 34018KT 01/M00 A3045 RMK A01 T00101003  RH  091%=      5-min Rain = 0
KHA3 072023Z 34019KT 01/M01 A3045 RMK A01 T00101005  RH  090%=      5-min Rain = 0
KHA3 072024Z 35017KT 01/M01 A3045 RMK A01 T00101006  RH  089%=      5-min Rain = 0
KHA3 072025Z 35014KT 01/M01 A3045 RMK A01 T00101005  RH  089%=      5-min Rain = 0
KHA3 072026Z 34016KT 01/M00 A3045 RMK A01 T00101004  RH  090%=      5-min Rain = 0
KHA3 072027Z 35016KT 01/M00 A3045 RMK A01 T00101004  RH  090%=      5-min Rain = 0
KHA3 072028Z 35017KT 01/M00 A3045 RMK A01 T00101004  RH  090%=      5-min Rain = 0
KHA3 072029Z 36015G21KT 01/M01 A3045 RMK A01 T00101005  RH  090%=      5-min Rain = 0
KHA3 072030Z 35016KT 01/M01 A3045 RMK A01 T00101005  RH  090%=      5-min Rain = 0
KHA3 072031Z 35015KT 01/M01 A3045 RMK A01 T00101005  RH  089%=      5-min Rain = 0
KHA3 072032Z 35015KT 01/M01 A3045 RMK A01 T00101006  RH  089%=      5-min Rain = 0
KHA3 072033Z 36015KT 01/M01 A3045 RMK A01 T00101007  RH  089%=      5-min Rain = 0
KHA3 072034Z 35016KT 01/M01 A3045 RMK A01 T00091007  RH  089%=      5-min Rain = 0
KHA3 072035Z 36014KT 01/M01 A3045 RMK A01 T00101007  RH  089%=      5-min Rain = 0
KHA3 072036Z 35015KT 01/M01 A3045 RMK A01 T00101006  RH  089%=      5-min Rain = 0
KHA3 072037Z 36014KT 01/M01 A3045 RMK A01 T00101007  RH  089%=      5-min Rain = 0
KHA3 072038Z 35017KT 01/M01 A3045 RMK A01 T00091007  RH  089%=      5-min Rain = 0
KHA3 072039Z 35017KT 01/M01 A3045 RMK A01 T00101008  RH  088%=      5-min Rain = 0
KHA3 072040Z 36016G21KT 01/M01 A3045 RMK A01 T00101007  RH  088%=      5-min Rain = 0
KHA3 072041Z 35017KT 01/M01 A3045 RMK A01 T00101007  RH  088%=      5-min Rain = 0
KHA3 072042Z 35018KT 01/M01 A3045 RMK A01 T00101008  RH  088%=      5-min Rain = 0
KHA3 072043Z 36015KT 01/M01 A3045 RMK A01 T00101008  RH  088%=      5-min Rain = 0
KHA3 072044Z 00015KT 01/M01 A3045 RMK A01 T00101006  RH  089%=      5-min Rain = 0
KHA3 072045Z 36014KT 01/M01 A3045 RMK A01 T00101007  RH  089%=      5-min Rain = 0
KHA3 072046Z 35014KT 01/M01 A3045 RMK A01 T00101006  RH  089%=      5-min Rain = 0
KHA3 072047Z 36012KT 01/M01 A3045 RMK A01 T00101006  RH  089%=      5-min Rain = 0
KHA3 072048Z 36012KT 01/M00 A3045 RMK A01 T00111004  RH  090%=      5-min Rain = 0
KHA3 072049Z 35013KT 01/M00 A3045 RMK A01 T00111003  RH  091%=      5-min Rain = 0
KHA3 072050Z 35013KT 01/M00 A3045 RMK A01 T00111003  RH  090%=      5-min Rain = 0
KHA3 072051Z 35013KT 01/M01 A3045 RMK A01 T00111005  RH  089%=      5-min Rain = 0
KHA3 072052Z 36010KT 01/M00 A3045 RMK A01 T00111004  RH  090%=      5-min Rain = 0
KHA3 072053Z 36010KT 01/M00 A3045 RMK A01 T00121001  RH  091%=      5-min Rain = 0
KHA3 072054Z 35013KT 01/00 A3045 RMK A01 T001200-0  RH  091%=      5-min Rain = 0
KHA3 072055Z 35017KT 01/M00 A3044 RMK A01 T00131002  RH  090%=      5-min Rain = 0
KHA3 072056Z 35016KT 01/M01 A3044 RMK A01 T00121005  RH  088%=      5-min Rain = 0
KHA3 072057Z 35014KT 01/M01 A3044 RMK A01 T00121005  RH  088%=      5-min Rain = 0
KHA3 072058Z 36016KT 01/M01 A3044 RMK A01 T00121005  RH  088%=      5-min Rain = 0
KHA3 072059Z 36015KT 01/M01 A3044 RMK A01 T00121005  RH  088%=      5-min Rain = 0
KHA3 072100Z 36013KT 01/M00 A3045 RMK A01 T00121004  RH  089%=      5-min Rain = 0
KHA3 072101Z 36011KT 01/M00 A3045 RMK A01 T00121004  RH  089%=      5-min Rain = 0
KHA3 072102Z 36011KT 01/M00 A3045 RMK A01 T00121002  RH  090%=      5-min Rain = 0
KHA3 072103Z 36011KT 01/M00 A3045 RMK A01 T00121001  RH  091%=      5-min Rain = 0
KHA3 072104Z 35014KT 01/M00 A3045 RMK A01 T00131001  RH  090%=      5-min Rain = 0
KHA3 072105Z 00012KT 01/M00 A3045 RMK A01 T00121004  RH  089%=      5-min Rain = 0
KHA3 072106Z 36009KT 01/M00 A3045 RMK A01 T00121004  RH  089%=      5-min Rain = 0
KHA3 072107Z 36010KT 01/M00 A3045 RMK A01 T00121002  RH  090%=      5-min Rain = 0
KHA3 072108Z 00012KT 01/M00 A3045 RMK A01 T00131001  RH  090%=      5-min Rain = 0
KHA3 072109Z 36011KT 01/M00 A3045 RMK A01 T00131002  RH  090%=      5-min Rain = 0
KHA3 072110Z 35011KT 01/M00 A3045 RMK A01 T00131001  RH  090%=      5-min Rain = 0
KHA3 072111Z 35012KT 01/M00 A3045 RMK A01 T00131001  RH  090%=      5-min Rain = 0
KHA3 072112Z 35011KT 01/M00 A3045 RMK A01 T00131002  RH  090%=      5-min Rain = 0
KHA3 072113Z 36012KT 01/M00 A3045 RMK A01 T00131001  RH  090%=      5-min Rain = 0
KHA3 072114Z 36013KT 01/M00 A3045 RMK A01 T00131002  RH  090%=      5-min Rain = 0
KHA3 072115Z 00014KT 01/M00 A3045 RMK A01 T00131002  RH  090%=      5-min Rain = 0
KHA3 072116Z 36012KT 01/M00 A3045 RMK A01 T00131002  RH  090%=      5-min Rain = 0
KHA3 072117Z 36011KT 01/M00 A3045 RMK A01 T00131001  RH  090%=      5-min Rain = 0
KHA3 072118Z 35011KT 01/00 A3045 RMK A01 T00140000  RH  091%=      5-min Rain = 0
KHA3 072119Z 35013KT 01/00 A3045 RMK A01 T001400-0  RH  091%=      5-min Rain = 0
KHA3 072120Z 35012KT 01/M00 A3045 RMK A01 T00141001  RH  090%=      5-min Rain = 0
KHA3 072121Z 36012KT 01/M00 A3045 RMK A01 T00141001  RH  090%=      5-min Rain = 0
KHA3 072122Z 00012KT 01/M00 A3045 RMK A01 T00141001  RH  090%=      5-min Rain = 0
KHA3 072123Z 36010KT 01/M00 A3045 RMK A01 T00141001  RH  090%=      5-min Rain = 0
KHA3 072124Z 35010KT 01/00 A3045 RMK A01 T00140000  RH  090%=      5-min Rain = 0
KHA3 072125Z 34010KT 02/00 A3045 RMK A01 T00150001  RH  091%=      5-min Rain = 0
KHA3 072126Z 34012KT 02/00 A3045 RMK A01 T00150001  RH  091%=      5-min Rain = 0
KHA3 072127Z 35011KT 01/M00 A3045 RMK A01 T00141001  RH  089%=      5-min Rain = 0
KHA3 072128Z 35012KT 01/M00 A3045 RMK A01 T00141002  RH  089%=      5-min Rain = 0
KHA3 072129Z 35011KT 01/M00 A3045 RMK A01 T00141002  RH  089%=      5-min Rain = 0
KHA3 072130Z 35011KT 01/M00 A3045 RMK A01 T00141002  RH  089%=      5-min Rain = 0
KHA3 072131Z 35010KT 01/M00 A3045 RMK A01 T00141002  RH  089%=      5-min Rain = 0
KHA3 072132Z 34011KT 01/M00 A3045 RMK A01 T00141002  RH  089%=      5-min Rain = 0
KHA3 072133Z 35011KT 01/M00 A3045 RMK A01 T00141001  RH  090%=      5-min Rain = 0
KHA3 072134Z 35011KT 02/M00 A3045 RMK A01 T00151001  RH  090%=      5-min Rain = 0
KHA3 072135Z 36012KT 02/M00 A3045 RMK A01 T00151001  RH  090%=      5-min Rain = 0
KHA3 072136Z 35010KT 02/M00 A3045 RMK A01 T00151001  RH  090%=      5-min Rain = 0
KHA3 072137Z 35010KT 02/00 A3045 RMK A01 T00150000  RH  090%=      5-min Rain = 0
KHA3 072138Z 35012KT 02/00 A3045 RMK A01 T00150000  RH  090%=      5-min Rain = 0
KHA3 072139Z 35013KT 01/M00 A3045 RMK A01 T00141002  RH  089%=      5-min Rain = 0
KHA3 072140Z 35011KT 01/M00 A3045 RMK A01 T00141003  RH  089%=      5-min Rain = 0
KHA3 072141Z 35011KT 01/M00 A3045 RMK A01 T00141002  RH  089%=      5-min Rain = 0
KHA3 072142Z 35011KT 01/M00 A3045 RMK A01 T00141001  RH  090%=      5-min Rain = 0
KHA3 072143Z 35010KT 01/00 A3045 RMK A01 T001400-0  RH  090%=      5-min Rain = 0
KHA3 072144Z 35011KT 02/00 A3045 RMK A01 T00150000  RH  090%=      5-min Rain = 0
KHA3 072145Z 35011KT 02/00 A3045 RMK A01 T00150000  RH  090%=      5-min Rain = 0
KHA3 072146Z 35012KT 02/00 A3045 RMK A01 T001500-0  RH  090%=      5-min Rain = 0
KHA3 072147Z 35011KT 02/M00 A3045 RMK A01 T00151001  RH  089%=      5-min Rain = 0
KHA3 072148Z 35010KT 02/M00 A3045 RMK A01 T00151001  RH  089%=      5-min Rain = 0
KHA3 072149Z 35010KT 02/M00 A3045 RMK A01 T00151001  RH  089%=      5-min Rain = 0
KHA3 072150Z 35010KT 02/00 A3045 RMK A01 T001500-0  RH  090%=      5-min Rain = 0
KHA3 072151Z 35012KT 02/00 A3045 RMK A01 T00150000  RH  090%=      5-min Rain = 0
KHA3 072152Z 35011KT 02/00 A3045 RMK A01 T001500-0  RH  089%=      5-min Rain = 0
KHA3 072153Z 35011KT 02/M00 A3045 RMK A01 T00151001  RH  089%=      5-min Rain = 0
KHA3 072154Z 35011KT 02/M00 A3045 RMK A01 T00151001  RH  089%=      5-min Rain = 0
KHA3 072155Z 35010KT 02/M00 A3045 RMK A01 T00151001  RH  089%=      5-min Rain = 0
KHA3 072156Z 34011KT 02/00 A3045 RMK A01 T00150000  RH  090%=      5-min Rain = 0
KHA3 072157Z 35011KT 02/00 A3045 RMK A01 T00160000  RH  090%=      5-min Rain = 0
KHA3 072158Z 36012KT 02/00 A3045 RMK A01 T00160000  RH  089%=      5-min Rain = 0
KHA3 072159Z 35012KT 02/00 A3045 RMK A01 T00160001  RH  090%=      5-min Rain = 0
KHA3 072200Z 35013KT 02/00 A3045 RMK A01 T00160001  RH  090%=      5-min Rain = 0
KHA3 072201Z 35013KT 02/00 A3045 RMK A01 T00160000  RH  090%=      5-min Rain = 0
KHA3 072202Z 34012KT 02/M00 A3045 RMK A01 T00151002  RH  088%=      5-min Rain = 0
KHA3 072203Z 35014KT 02/M00 A3045 RMK A01 T00151003  RH  088%=      5-min Rain = 0
KHA3 072204Z 35012KT 02/M00 A3045 RMK A01 T00151004  RH  087%=      5-min Rain = 0
KHA3 072205Z 35010KT 02/M00 A3045 RMK A01 T00151003  RH  088%=      5-min Rain = 0
KHA3 072206Z 35011KT 02/M00 A3045 RMK A01 T00151001  RH  089%=      5-min Rain = 0
KHA3 072207Z 35014KT 02/M00 A3045 RMK A01 T00151001  RH  089%=      5-min Rain = 0
KHA3 072208Z 35012KT 01/M00 A3045 RMK A01 T00141004  RH  088%=      5-min Rain = 0
KHA3 072209Z 35012KT 01/M01 A3045 RMK A01 T00141005  RH  088%=      5-min Rain = 0
KHA3 072210Z 35013KT 01/M00 A3045 RMK A01 T00141004  RH  088%=      5-min Rain = 0
KHA3 072211Z 35013KT 01/M00 A3045 RMK A01 T00131004  RH  088%=      5-min Rain = 0
KHA3 072212Z 35012KT 01/M00 A3045 RMK A01 T00131004  RH  089%=      5-min Rain = 0
KHA3 072213Z 36012KT 01/M00 A3045 RMK A01 T00131003  RH  089%=      5-min Rain = 0
KHA3 072214Z 36013KT 01/M00 A3045 RMK A01 T00131004  RH  089%=      5-min Rain = 0
KHA3 072215Z 35013KT 01/M00 A3045 RMK A01 T00131004  RH  089%=      5-min Rain = 0
KHA3 072216Z 35013KT 01/M00 A3045 RMK A01 T00131004  RH  089%=      5-min Rain = 0
KHA3 072217Z 35014KT 01/M00 A3045 RMK A01 T00131004  RH  089%=      5-min Rain = 0
KHA3 072218Z 35015KT 01/M00 A3045 RMK A01 T00131004  RH  089%=      5-min Rain = 0
KHA3 072219Z 35014KT 01/M01 A3045 RMK A01 T00121005  RH  089%=      5-min Rain = 0
KHA3 072220Z 35014KT 01/M01 A3045 RMK A01 T00121005  RH  088%=      5-min Rain = 0
KHA3 072221Z 35015KT 01/M01 A3045 RMK A01 T00121006  RH  088%=      5-min Rain = 0
KHA3 072222Z 36012KT 01/M01 A3045 RMK A01 T00121007  RH  088%=      5-min Rain = 0
KHA3 072223Z 36012KT 01/M01 A3045 RMK A01 T00121005  RH  088%=      5-min Rain = 0
KHA3 072224Z 36013KT 01/M00 A3045 RMK A01 T00121004  RH  089%=      5-min Rain = 0
KHA3 072225Z 35012KT 01/M00 A3045 RMK A01 T00121004  RH  089%=      5-min Rain = 0
KHA3 072226Z 36015KT 01/M00 A3045 RMK A01 T00121003  RH  089%=      5-min Rain = 0
KHA3 072227Z 35014KT 01/M01 A3045 RMK A01 T00131005  RH  088%=      5-min Rain = 0
KHA3 072228Z 35015KT 01/M01 A3045 RMK A01 T00121006  RH  087%=      5-min Rain = 0
KHA3 072229Z 36012KT 01/M01 A3045 RMK A01 T00121008  RH  087%=      5-min Rain = 0
KHA3 072230Z 36011KT 01/M01 A3045 RMK A01 T00121007  RH  087%=      5-min Rain = 0
KHA3 072231Z 35011KT 01/M01 A3045 RMK A01 T00121006  RH  088%=      5-min Rain = 0
KHA3 072232Z 35012KT 01/M01 A3045 RMK A01 T00121005  RH  088%=      5-min Rain = 0
KHA3 072233Z 35012KT 01/M01 A3045 RMK A01 T00121006  RH  088%=      5-min Rain = 0
KHA3 072234Z 35010KT 01/M01 A3045 RMK A01 T00121006  RH  088%=      5-min Rain = 0
KHA3 072235Z 35011KT 01/M01 A3045 RMK A01 T00121006  RH  088%=      5-min Rain = 0
KHA3 072236Z 35009KT 01/M01 A3045 RMK A01 T00121005  RH  088%=      5-min Rain = 0
KHA3 072237Z 35010KT 01/M01 A3045 RMK A01 T00121005  RH  089%=      5-min Rain = 0
KHA3 072238Z 34010KT 01/M01 A3045 RMK A01 T00121005  RH  089%=      5-min Rain = 0
KHA3 072239Z 35010KT 01/M01 A3045 RMK A01 T00121005  RH  088%=      5-min Rain = 0
KHA3 072240Z 36011KT 01/M01 A3045 RMK A01 T00121005  RH  088%=      5-min Rain = 0
KHA3 072241Z 35009KT 01/M01 A3045 RMK A01 T00121006  RH  088%=      5-min Rain = 0
KHA3 072242Z 35009KT 01/M01 A3046 RMK A01 T00121005  RH  089%=      5-min Rain = 0
KHA3 072243Z 36010KT 01/M01 A3046 RMK A01 T00121005  RH  089%=      5-min Rain = 0
KHA3 072244Z 35010KT 01/M01 A3046 RMK A01 T00121005  RH  088%=      5-min Rain = 0
KHA3 072245Z 34011KT 01/M01 A3046 RMK A01 T00121005  RH  088%=      5-min Rain = 0
KHA3 072246Z 35009KT 01/M01 A3046 RMK A01 T00121006  RH  088%=      5-min Rain = 0
KHA3 072247Z 35010KT 01/M01 A3046 RMK A01 T00121005  RH  088%=      5-min Rain = 0
KHA3 072248Z 35010KT 01/M01 A3046 RMK A01 T00121006  RH  088%=      5-min Rain = 0
KHA3 072249Z 35009KT 01/M01 A3046 RMK A01 T00121006  RH  088%=      5-min Rain = 0
KHA3 072250Z 35013KT 01/M01 A3046 RMK A01 T00121005  RH  089%=      5-min Rain = 0
KHA3 072251Z 35014KT 01/M01 A3046 RMK A01 T00121008  RH  087%=      5-min Rain = 0
KHA3 072252Z 35014KT 01/M01 A3046 RMK A01 T00111010  RH  086%=      5-min Rain = 0
KHA3 072253Z 35013KT 01/M01 A3046 RMK A01 T00111010  RH  086%=      5-min Rain = 0
KHA3 072254Z 35012KT 01/M01 A3046 RMK A01 T00111010  RH  086%=      5-min Rain = 0
KHA3 072255Z 35012KT 01/M01 A3045 RMK A01 T00111009  RH  087%=      5-min Rain = 0
KHA3 072256Z 35011KT 01/M01 A3045 RMK A01 T00111007  RH  087%=      5-min Rain = 0
KHA3 072257Z 35011KT 01/M01 A3045 RMK A01 T00111006  RH  088%=      5-min Rain = 0
KHA3 072258Z 35010KT 01/M01 A3045 RMK A01 T00121006  RH  088%=      5-min Rain = 0
KHA3 072259Z 35013KT 01/M01 A3046 RMK A01 T00111006  RH  088%=      5-min Rain = 0
KHA3 072300Z 35012KT 01/M01 A3046 RMK A01 T00121007  RH  087%=      5-min Rain = 0
KHA3 072301Z 35011KT 01/M01 A3046 RMK A01 T00111008  RH  087%=      5-min Rain = 0
KHA3 072302Z 35010KT 01/M01 A3046 RMK A01 T00121007  RH  088%=      5-min Rain = 0
KHA3 072303Z 36014KT 01/M01 A3046 RMK A01 T00121007  RH  087%=      5-min Rain = 0
KHA3 072304Z 00012KT 01/M01 A3046 RMK A01 T00121009  RH  086%=      5-min Rain = 0
KHA3 072305Z 35010KT 01/M01 A3046 RMK A01 T00121009  RH  086%=      5-min Rain = 0
KHA3 072306Z 36012KT 01/M01 A3046 RMK A01 T00121008  RH  086%=      5-min Rain = 0
KHA3 072307Z 36014KT 01/M01 A3046 RMK A01 T00121009  RH  086%=      5-min Rain = 0
KHA3 072308Z 36013KT 01/M01 A3046 RMK A01 T00121011  RH  085%=      5-min Rain = 0
KHA3 072309Z 35012KT 01/M01 A3046 RMK A01 T00121010  RH  085%=      5-min Rain = 0
KHA3 072310Z 36012KT 01/M01 A3046 RMK A01 T00121009  RH  086%=      5-min Rain = 0
KHA3 072311Z 35012KT 01/M01 A3046 RMK A01 T00121009  RH  086%=      5-min Rain = 0
KHA3 072312Z 35013KT 01/M01 A3046 RMK A01 T00121011  RH  085%=      5-min Rain = 0
KHA3 072313Z 36011KT 01/M01 A3046 RMK A01 T00121011  RH  085%=      5-min Rain = 0
KHA3 072314Z 35012KT 01/M01 A3046 RMK A01 T00121010  RH  085%=      5-min Rain = 0
KHA3 072315Z 34013KT 01/M01 A3046 RMK A01 T00121009  RH  086%=      5-min Rain = 0
KHA3 072316Z 34013KT 01/M01 A3046 RMK A01 T00121011  RH  085%=      5-min Rain = 0
KHA3 072317Z 35011KT 01/M01 A3047 RMK A01 T00121012  RH  084%=      5-min Rain = 0
KHA3 072318Z 35013KT 01/M01 A3047 RMK A01 T00121011  RH  085%=      5-min Rain = 0
KHA3 072319Z 35012KT 01/M01 A3047 RMK A01 T00121012  RH  084%=      5-min Rain = 0
KHA3 072320Z 35010KT 01/M01 A3047 RMK A01 T00121012  RH  084%=      5-min Rain = 0
KHA3 072321Z 35012KT 01/M01 A3047 RMK A01 T00121010  RH  085%=      5-min Rain = 0
KHA3 072322Z 35011KT 01/M01 A3047 RMK A01 T00121010  RH  085%=      5-min Rain = 0
KHA3 072323Z 35012KT 01/M01 A3046 RMK A01 T00121010  RH  085%=      5-min Rain = 0
KHA3 072324Z 35011KT 01/M01 A3046 RMK A01 T00131010  RH  085%=      5-min Rain = 0
KHA3 072325Z 35010KT 01/M01 A3046 RMK A01 T00121010  RH  085%=      5-min Rain = 0
KHA3 072326Z 35013KT 01/M01 A3046 RMK A01 T00131009  RH  085%=      5-min Rain = 0
KHA3 072327Z 35011KT 01/M01 A3047 RMK A01 T00131010  RH  084%=      5-min Rain = 0
KHA3 072328Z 35012KT 01/M01 A3047 RMK A01 T00131010  RH  085%=      5-min Rain = 0
KHA3 072329Z 35011KT 01/M01 A3047 RMK A01 T00131010  RH  085%=      5-min Rain = 0
KHA3 072330Z 35011KT 01/M01 A3047 RMK A01 T00131010  RH  085%=      5-min Rain = 0
KHA3 072331Z 35013KT 01/M01 A3047 RMK A01 T00131010  RH  085%=      5-min Rain = 0
KHA3 072332Z 35012KT 01/M01 A3047 RMK A01 T00131010  RH  085%=      5-min Rain = 0
KHA3 072333Z 35011KT 01/M01 A3047 RMK A01 T00131009  RH  085%=      5-min Rain = 0
KHA3 072334Z 35014KT 01/M01 A3046 RMK A01 T00131010  RH  085%=      5-min Rain = 0
KHA3 072335Z 36015KT 01/M01 A3046 RMK A01 T00131012  RH  083%=      5-min Rain = 0
KHA3 072336Z 35013KT 01/M01 A3046 RMK A01 T00131011  RH  084%=      5-min Rain = 0
KHA3 072337Z 35013KT 01/M01 A3046 RMK A01 T00131011  RH  084%=      5-min Rain = 0
KHA3 072338Z 36012KT 01/M01 A3046 RMK A01 T00131011  RH  084%=      5-min Rain = 0
KHA3 072339Z 36011KT 01/M01 A3046 RMK A01 T00131010  RH  084%=      5-min Rain = 0
KHA3 072340Z 35010KT 01/M01 A3046 RMK A01 T00131009  RH  085%=      5-min Rain = 0
KHA3 072341Z 35012KT 01/M01 A3047 RMK A01 T00131009  RH  085%=      5-min Rain = 0
KHA3 072342Z 35009KT 01/M01 A3047 RMK A01 T00141009  RH  085%=      5-min Rain = 0
KHA3 072343Z 34011KT 01/M01 A3047 RMK A01 T00141009  RH  085%=      5-min Rain = 0
KHA3 072344Z 35009KT 01/M01 A3047 RMK A01 T00141009  RH  085%=      5-min Rain = 0
KHA3 072345Z 35011KT 01/M01 A3047 RMK A01 T00141008  RH  085%=      5-min Rain = 0
KHA3 072346Z 36011KT 01/M01 A3047 RMK A01 T00141009  RH  085%=      5-min Rain = 0
KHA3 072347Z 36012KT 01/M01 A3047 RMK A01 T00141010  RH  084%=      5-min Rain = 0
KHA3 072348Z 35010KT 01/M01 A3047 RMK A01 T00141010  RH  084%=      5-min Rain = 0
KHA3 072349Z 35011KT 01/M01 A3047 RMK A01 T00141008  RH  085%=      5-min Rain = 0
KHA3 072350Z 35010KT 01/M01 A3047 RMK A01 T00141008  RH  085%=      5-min Rain = 0
KHA3 072351Z 36011KT 01/M01 A3047 RMK A01 T00141008  RH  085%=      5-min Rain = 0
KHA3 072352Z 36013KT 01/M01 A3047 RMK A01 T00141009  RH  085%=      5-min Rain = 0
KHA3 072353Z 36012KT 02/M01 A3047 RMK A01 T00151009  RH  084%=      5-min Rain = 0
KHA3 072354Z 36010KT 02/M01 A3047 RMK A01 T00151008  RH  085%=      5-min Rain = 0
KHA3 072355Z 35010KT 02/M01 A3047 RMK A01 T00151007  RH  086%=      5-min Rain = 0
KHA3 072356Z 36010KT 02/M01 A3046 RMK A01 T00151008  RH  085%=      5-min Rain = 0
KHA3 072357Z 35010KT 02/M01 A3047 RMK A01 T00151007  RH  085%=      5-min Rain = 0
KHA3 072358Z 35013KT 02/M01 A3047 RMK A01 T00151008  RH  085%=      5-min Rain = 0
KHA3 072359Z 35012KT 02/M01 A3047 RMK A01 T00151010  RH  084%=      5-min Rain = 0
KHA3 080000Z 35011KT 02/M01 A3047 RMK A01 T00151010  RH  084%=      5-min Rain = 0
KHA3 080001Z 35012KT 02/M01 A3047 RMK A01 T00151009  RH  084%=      5-min Rain = 0
KHA3 080002Z 35012KT 02/M01 A3047 RMK A01 T00151010  RH  083%=      5-min Rain = 0
KHA3 080003Z 35010KT 02/M01 A3047 RMK A01 T00151010  RH  083%=      5-min Rain = 0
KHA3 080004Z 36010KT 02/M01 A3047 RMK A01 T00151009  RH  084%=      5-min Rain = 0
KHA3 080005Z 35010KT 02/M01 A3047 RMK A01 T00161008  RH  084%=      5-min Rain = 0
KHA3 080006Z 35011KT 02/M01 A3047 RMK A01 T00161008  RH  084%=      5-min Rain = 0
KHA3 080007Z 35011KT 02/M01 A3047 RMK A01 T00161009  RH  084%=      5-min Rain = 0
KHA3 080008Z 36010KT 02/M01 A3047 RMK A01 T00161009  RH  084%=      5-min Rain = 0
KHA3 080009Z 35009KT 02/M01 A3047 RMK A01 T00161009  RH  084%=      5-min Rain = 0
KHA3 080010Z 35011KT 02/M01 A3047 RMK A01 T00151008  RH  084%=      5-min Rain = 0
KHA3 080011Z 35011KT 02/M01 A3047 RMK A01 T00161007  RH  085%=      5-min Rain = 0
KHA3 080012Z 35011KT 02/M01 A3047 RMK A01 T00161007  RH  085%=      5-min Rain = 0
KHA3 080013Z 35011KT 02/M01 A3047 RMK A01 T00161007  RH  085%=      5-min Rain = 0
KHA3 080014Z 35011KT 02/M01 A3047 RMK A01 T00161007  RH  085%=      5-min Rain = 0
KHA3 080015Z 35011KT 02/M01 A3047 RMK A01 T00161006  RH  085%=      5-min Rain = 0
KHA3 080016Z 35012KT 02/M01 A3047 RMK A01 T00161007  RH  085%=      5-min Rain = 0
KHA3 080017Z 35012KT 02/M01 A3047 RMK A01 T00161008  RH  084%=      5-min Rain = 0
KHA3 080018Z 35011KT 02/M01 A3047 RMK A01 T00161009  RH  084%=      5-min Rain = 0
KHA3 080019Z 35009KT 02/M01 A3048 RMK A01 T00161008  RH  084%=      5-min Rain = 0
KHA3 080020Z 35009KT 02/M01 A3048 RMK A01 T00161006  RH  085%=      5-min Rain = 0
KHA3 080021Z 35010KT 02/M01 A3048 RMK A01 T00161006  RH  085%=      5-min Rain = 0
KHA3 080022Z 35010KT 02/M01 A3048 RMK A01 T00161007  RH  084%=      5-min Rain = 0
KHA3 080023Z 36010KT 02/M01 A3048 RMK A01 T00171007  RH  084%=      5-min Rain = 0
KHA3 080024Z 00008KT 02/M01 A3047 RMK A01 T00171007  RH  084%=      5-min Rain = 0
KHA3 080025Z 00007KT 02/M01 A3047 RMK A01 T00171005  RH  085%=      5-min Rain = 0
KHA3 080026Z 00007KT 02/M01 A3047 RMK A01 T00171005  RH  085%=      5-min Rain = 0
KHA3 080027Z 36008KT 02/M01 A3048 RMK A01 T00171005  RH  085%=      5-min Rain = 0
KHA3 080028Z 00007KT 02/M01 A3048 RMK A01 T00171005  RH  085%=      5-min Rain = 0
KHA3 080029Z 35008KT 02/M01 A3048 RMK A01 T00171005  RH  086%=      5-min Rain = 0
KHA3 080030Z 00009KT 02/M01 A3048 RMK A01 T00171006  RH  085%=      5-min Rain = 0
KHA3 080031Z 00009KT 02/M01 A3048 RMK A01 T00171007  RH  084%=      5-min Rain = 0
KHA3 080032Z 36008KT 02/M01 A3048 RMK A01 T00171006  RH  084%=      5-min Rain = 0
KHA3 080033Z 00008KT 02/M01 A3048 RMK A01 T00171005  RH  085%=      5-min Rain = 0
KHA3 080034Z 00008KT 02/M01 A3048 RMK A01 T00171005  RH  085%=      5-min Rain = 0
KHA3 080035Z 35008KT 02/M01 A3048 RMK A01 T00181006  RH  085%=      5-min Rain = 0
KHA3 080036Z 36009KT 02/M01 A3048 RMK A01 T00171006  RH  085%=      5-min Rain = 0
KHA3 080037Z 36010KT 02/M01 A3048 RMK A01 T00171006  RH  085%=      5-min Rain = 0
KHA3 080038Z 36010KT 02/M01 A3048 RMK A01 T00181006  RH  084%=      5-min Rain = 0
KHA3 080039Z 36010KT 02/M01 A3048 RMK A01 T00181007  RH  084%=      5-min Rain = 0
KHA3 080040Z 36010KT 02/M01 A3048 RMK A01 T00181006  RH  084%=      5-min Rain = 0
KHA3 080041Z 35009KT 02/M01 A3048 RMK A01 T00181007  RH  084%=      5-min Rain = 0
KHA3 080042Z 35009KT 02/M01 A3048 RMK A01 T00181007  RH  084%=      5-min Rain = 0
KHA3 080043Z 35009KT 02/M01 A3048 RMK A01 T00181006  RH  084%=      5-min Rain = 0
KHA3 080044Z 35008KT 02/M01 A3048 RMK A01 T00181005  RH  084%=      5-min Rain = 0
KHA3 080045Z 35008KT 02/M00 A3048 RMK A01 T00181004  RH  085%=      5-min Rain = 0
KHA3 080046Z 36009KT 02/M01 A3048 RMK A01 T00181005  RH  084%=      5-min Rain = 0
KHA3 080047Z 35009KT 02/M01 A3048 RMK A01 T00181006  RH  084%=      5-min Rain = 0
KHA3 080048Z 35008KT 02/M01 A3048 RMK A01 T00181006  RH  084%=      5-min Rain = 0
KHA3 080049Z 36011KT 02/M01 A3048 RMK A01 T00181006  RH  084%=      5-min Rain = 0
KHA3 080050Z 36011KT 02/M01 A3048 RMK A01 T00181007  RH  083%=      5-min Rain = 0
KHA3 080051Z 35010KT 02/M01 A3048 RMK A01 T00181007  RH  083%=      5-min Rain = 0
KHA3 080052Z 35009KT 02/M01 A3048 RMK A01 T00181008  RH  083%=      5-min Rain = 0
KHA3 080053Z 35009KT 02/M01 A3049 RMK A01 T00191006  RH  083%=      5-min Rain = 0
KHA3 080054Z 35008KT 02/M01 A3049 RMK A01 T00191006  RH  084%=      5-min Rain = 0
KHA3 080055Z 34008KT 02/M01 A3049 RMK A01 T00191006  RH  084%=      5-min Rain = 0
KHA3 080056Z 35010KT 02/M00 A3048 RMK A01 T00191004  RH  084%=      5-min Rain = 0
KHA3 080057Z 36009KT 02/M01 A3048 RMK A01 T00191005  RH  084%=      5-min Rain = 0
KHA3 080058Z 36012KT 02/M00 A3048 RMK A01 T00191004  RH  084%=      5-min Rain = 0
KHA3 080059Z 36011KT 02/M01 A3048 RMK A01 T00191005  RH  084%=      5-min Rain = 0
KHA3 080100Z 00010KT 02/M01 A3048 RMK A01 T00191005  RH  084%=      5-min Rain = 0
KHA3 080101Z 00012KT 02/M01 A3048 RMK A01 T00191005  RH  084%=      5-min Rain = 0
KHA3 080102Z 00011KT 02/M01 A3048 RMK A01 T00191006  RH  084%=      5-min Rain = 0
KHA3 080103Z 01011KT 02/M01 A3048 RMK A01 T00191005  RH  084%=      5-min Rain = 0
KHA3 080104Z 00012KT 02/M01 A3048 RMK A01 T00191007  RH  083%=      5-min Rain = 0
KHA3 080105Z 00010KT 02/M01 A3048 RMK A01 T00191007  RH  083%=      5-min Rain = 0
KHA3 080106Z 36009KT 02/M01 A3048 RMK A01 T00191006  RH  083%=      5-min Rain = 0
KHA3 080107Z 35010KT 02/M01 A3048 RMK A01 T00191005  RH  084%=      5-min Rain = 0
KHA3 080108Z 36010KT 02/M01 A3048 RMK A01 T00191006  RH  084%=      5-min Rain = 0
KHA3 080109Z 35011KT 02/M01 A3048 RMK A01 T00191006  RH  083%=      5-min Rain = 0
KHA3 080110Z 35010KT 02/M01 A3048 RMK A01 T00191007  RH  083%=      5-min Rain = 0
KHA3 080111Z 35010KT 02/M01 A3048 RMK A01 T00191006  RH  083%=      5-min Rain = 0
KHA3 080112Z 35010KT 02/M01 A3048 RMK A01 T00191006  RH  083%=      5-min Rain = 0
KHA3 080113Z 35010KT 02/M01 A3048 RMK A01 T00201007  RH  083%=      5-min Rain = 0
KHA3 080114Z 00008KT 02/M01 A3048 RMK A01 T00201006  RH  083%=      5-min Rain = 0
KHA3 080115Z 35009KT 02/M00 A3048 RMK A01 T00201004  RH  084%=      5-min Rain = 0
KHA3 080116Z 36009KT 02/M00 A3048 RMK A01 T00201004  RH  084%=      5-min Rain = 0
KHA3 080117Z 00011KT 02/M00 A3048 RMK A01 T00201004  RH  084%=      5-min Rain = 0
KHA3 080118Z 36009KT 02/M01 A3048 RMK A01 T00201005  RH  083%=      5-min Rain = 0
KHA3 080119Z 35008KT 02/M01 A3048 RMK A01 T00201005  RH  083%=      5-min Rain = 0
KHA3 080120Z 35010KT 02/M01 A3048 RMK A01 T00201005  RH  084%=      5-min Rain = 0
KHA3 080121Z 35010KT 02/M01 A3048 RMK A01 T00201006  RH  083%=      5-min Rain = 0
KHA3 080122Z 36010KT 02/M01 A3048 RMK A01 T00201006  RH  083%=      5-min Rain = 0
KHA3 080123Z 00012KT 02/M01 A3048 RMK A01 T00201005  RH  083%=      5-min Rain = 0
KHA3 080124Z 00009KT 02/M01 A3048 RMK A01 T00201006  RH  083%=      5-min Rain = 0
KHA3 080125Z 36010KT 02/M01 A3048 RMK A01 T00201005  RH  083%=      5-min Rain = 0
KHA3 080126Z 36011KT 02/M01 A3048 RMK A01 T00201005  RH  083%=      5-min Rain = 0
KHA3 080127Z 36011KT 02/M01 A3048 RMK A01 T00201006  RH  083%=      5-min Rain = 0
KHA3 080128Z 00010KT 02/M01 A3048 RMK A01 T00201006  RH  083%=      5-min Rain = 0
KHA3 080129Z 36008KT 02/M01 A3048 RMK A01 T00201005  RH  083%=      5-min Rain = 0
KHA3 080130Z 36008KT 02/M01 A3049 RMK A01 T00201005  RH  084%=      5-min Rain = 0
KHA3 080131Z 36009KT 02/M00 A3049 RMK A01 T00201004  RH  084%=      5-min Rain = 0
KHA3 080132Z 36008KT 02/M01 A3049 RMK A01 T00201005  RH  084%=      5-min Rain = 0
KHA3 080133Z 36009KT 02/M01 A3049 RMK A01 T00201005  RH  084%=      5-min Rain = 0
KHA3 080134Z 00009KT 02/M01 A3049 RMK A01 T00201006  RH  083%=      5-min Rain = 0
KHA3 080135Z 01011KT 02/M01 A3049 RMK A01 T00201007  RH  082%=      5-min Rain = 0
KHA3 080136Z 00010KT 02/M01 A3049 RMK A01 T00201008  RH  082%=      5-min Rain = 0
KHA3 080137Z 00009KT 02/M01 A3049 RMK A01 T00201006  RH  082%=      5-min Rain = 0
KHA3 080138Z 36010KT 02/M01 A3049 RMK A01 T00211006  RH  083%=      5-min Rain = 0
KHA3 080139Z 36010KT 02/M01 A3049 RMK A01 T00211007  RH  082%=      5-min Rain = 0
KHA3 080140Z 00012KT 02/M01 A3049 RMK A01 T00211008  RH  081%=      5-min Rain = 0
KHA3 080141Z 00010KT 02/M01 A3049 RMK A01 T00211009  RH  081%=      5-min Rain = 0
KHA3 080142Z 36008KT 02/M01 A3049 RMK A01 T00211008  RH  082%=      5-min Rain = 0
KHA3 080143Z 36011KT 02/M01 A3049 RMK A01 T00211008  RH  081%=      5-min Rain = 0
KHA3 080144Z 35010KT 02/M01 A3049 RMK A01 T00211008  RH  081%=      5-min Rain = 0
KHA3 080145Z 35009KT 02/M01 A3049 RMK A01 T00211007  RH  082%=      5-min Rain = 0
KHA3 080146Z 36010KT 02/M01 A3049 RMK A01 T00211007  RH  082%=      5-min Rain = 0
KHA3 080147Z 00012KT 02/M01 A3049 RMK A01 T00201009  RH  081%=      5-min Rain = 0
KHA3 080148Z 36010KT 02/M01 A3049 RMK A01 T00211009  RH  081%=      5-min Rain = 0
KHA3 080149Z 36010KT 02/M01 A3049 RMK A01 T00211009  RH  081%=      5-min Rain = 0
KHA3 080150Z 35010KT 02/M01 A3049 RMK A01 T00211009  RH  081%=      5-min Rain = 0
KHA3 080151Z 36009KT 02/M01 A3049 RMK A01 T00201010  RH  081%=      5-min Rain = 0
KHA3 080152Z 01010KT 02/M01 A3049 RMK A01 T00211008  RH  081%=      5-min Rain = 0
KHA3 080153Z 00011KT 02/M01 A3049 RMK A01 T00211008  RH  081%=      5-min Rain = 0
KHA3 080154Z 01009KT 02/M01 A3049 RMK A01 T00211009  RH  080%=      5-min Rain = 0
KHA3 080155Z 00012KT 02/M01 A3049 RMK A01 T00211010  RH  080%=      5-min Rain = 0
KHA3 080156Z 00009KT 02/M01 A3049 RMK A01 T00211011  RH  079%=      5-min Rain = 0
KHA3 080157Z 36008KT 02/M01 A3049 RMK A01 T00211009  RH  081%=      5-min Rain = 0
KHA3 080158Z 36009KT 02/M01 A3049 RMK A01 T00211008  RH  081%=      5-min Rain = 0
KHA3 080159Z 35010KT 02/M01 A3049 RMK A01 T00211008  RH  081%=      5-min Rain = 0
KHA3 080200Z 35009KT 02/M01 A3049 RMK A01 T00211009  RH  081%=      5-min Rain = 0
KHA3 080201Z 35008KT 02/M01 A3049 RMK A01 T00211009  RH  081%=      5-min Rain = 0
KHA3 080202Z 36009KT 02/M01 A3049 RMK A01 T00211009  RH  081%=      5-min Rain = 0
KHA3 080203Z 36009KT 02/M01 A3049 RMK A01 T00211009  RH  081%=      5-min Rain = 0
KHA3 080204Z 00010KT 02/M01 A3049 RMK A01 T00211007  RH  081%=      5-min Rain = 0
KHA3 080205Z 00010KT 02/M01 A3049 RMK A01 T00211008  RH  081%=      5-min Rain = 0
KHA3 080206Z 36009KT 02/M01 A3049 RMK A01 T00211009  RH  080%=      5-min Rain = 0
KHA3 080207Z 00008KT 02/M01 A3049 RMK A01 T00211009  RH  081%=      5-min Rain = 0
KHA3 080208Z 36008KT 02/M01 A3049 RMK A01 T00211008  RH  081%=      5-min Rain = 0
KHA3 080209Z 36008KT 02/M01 A3049 RMK A01 T00211009  RH  081%=      5-min Rain = 0
KHA3 080210Z 00008KT 02/M01 A3049 RMK A01 T00211007  RH  082%=      5-min Rain = 0
KHA3 080211Z 36011KT 02/M01 A3049 RMK A01 T00211008  RH  081%=      5-min Rain = 0
KHA3 080212Z 36010KT 02/M01 A3049 RMK A01 T00211011  RH  080%=      5-min Rain = 0
KHA3 080213Z 00011KT 02/M01 A3049 RMK A01 T00211012  RH  079%=      5-min Rain = 0
KHA3 080214Z 00010KT 02/M01 A3049 RMK A01 T00211012  RH  079%=      5-min Rain = 0
KHA3 080215Z 01009KT 02/M01 A3049 RMK A01 T00211010  RH  080%=      5-min Rain = 0
KHA3 080216Z 01009KT 02/M01 A3049 RMK A01 T00211010  RH  080%=      5-min Rain = 0
KHA3 080217Z 36008KT 02/M01 A3049 RMK A01 T00211009  RH  080%=      5-min Rain = 0
KHA3 080218Z 01008KT 02/M01 A3049 RMK A01 T00211009  RH  081%=      5-min Rain = 0
KHA3 080219Z 01008KT 02/M01 A3048 RMK A01 T00211008  RH  081%=      5-min Rain = 0
KHA3 080220Z 00008KT 02/M01 A3048 RMK A01 T00211008  RH  081%=      5-min Rain = 0
KHA3 080221Z 36007KT 02/M01 A3048 RMK A01 T00211008  RH  081%=      5-min Rain = 0
KHA3 080222Z 35007KT 02/M01 A3048 RMK A01 T00211007  RH  082%=      5-min Rain = 0
KHA3 080223Z 36007KT 02/M01 A3048 RMK A01 T00211006  RH  082%=      5-min Rain = 0
KHA3 080224Z 36007KT 02/M01 A3048 RMK A01 T00211005  RH  083%=      5-min Rain = 0
KHA3 080225Z 00006KT 02/M01 A3048 RMK A01 T00211005  RH  083%=      5-min Rain = 0
KHA3 080226Z 36007KT 02/M00 A3049 RMK A01 T00211004  RH  083%=      5-min Rain = 0
KHA3 080227Z 00007KT 02/M01 A3049 RMK A01 T00211005  RH  083%=      5-min Rain = 0
KHA3 080228Z 00006KT 02/M01 A3049 RMK A01 T00211005  RH  083%=      5-min Rain = 0
KHA3 080229Z 36008KT 02/M00 A3049 RMK A01 T00211004  RH  083%=      5-min Rain = 0
KHA3 080230Z 36009KT 02/M01 A3049 RMK A01 T00211007  RH  082%=      5-min Rain = 0
KHA3 080231Z 35008KT 02/M01 A3049 RMK A01 T00211007  RH  082%=      5-min Rain = 0
KHA3 080232Z 00009KT 02/M01 A3049 RMK A01 T00211007  RH  082%=      5-min Rain = 0
KHA3 080233Z 00009KT 02/M01 A3049 RMK A01 T00211007  RH  081%=      5-min Rain = 0
KHA3 080234Z 36009KT 02/M01 A3049 RMK A01 T00211008  RH  081%=      5-min Rain = 0
KHA3 080235Z 00010KT 02/M01 A3049 RMK A01 T00211007  RH  082%=      5-min Rain = 0
KHA3 080236Z 36008KT 02/M01 A3049 RMK A01 T00211009  RH  081%=      5-min Rain = 0
KHA3 080237Z 36006KT 02/M01 A3049 RMK A01 T00211007  RH  082%=      5-min Rain = 0
KHA3 080238Z 36007KT 02/M00 A3049 RMK A01 T00211004  RH  083%=      5-min Rain = 0
KHA3 080239Z 35009KT 02/M01 A3049 RMK A01 T00211005  RH  083%=      5-min Rain = 0
KHA3 080240Z 36010KT 02/M01 A3048 RMK A01 T00211007  RH  082%=      5-min Rain = 0
KHA3 080241Z 35010KT 02/M01 A3048 RMK A01 T00211009  RH  081%=      5-min Rain = 0
KHA3 080242Z 00009KT 02/M01 A3048 RMK A01 T00211009  RH  081%=      5-min Rain = 0
KHA3 080243Z 36009KT 02/M01 A3048 RMK A01 T00211008  RH  081%=      5-min Rain = 0
KHA3 080244Z 36009KT 02/M01 A3048 RMK A01 T00211008  RH  081%=      5-min Rain = 0
KHA3 080245Z 35009KT 02/M01 A3048 RMK A01 T00211008  RH  081%=      5-min Rain = 0
KHA3 080246Z 36009KT 02/M01 A3048 RMK A01 T00211008  RH  081%=      5-min Rain = 0
KHA3 080247Z 35009KT 02/M01 A3049 RMK A01 T00211007  RH  081%=      5-min Rain = 0
KHA3 080248Z 35008KT 02/M01 A3049 RMK A01 T00211008  RH  081%=      5-min Rain = 0
KHA3 080249Z 35009KT 02/M01 A3049 RMK A01 T00211007  RH  082%=      5-min Rain = 0
KHA3 080250Z 35008KT 02/M01 A3049 RMK A01 T00211007  RH  082%=      5-min Rain = 0
KHA3 080251Z 35009KT 02/M01 A3049 RMK A01 T00211007  RH  082%=      5-min Rain = 0
KHA3 080252Z 35009KT 02/M01 A3049 RMK A01 T00211008  RH  081%=      5-min Rain = 0
KHA3 080253Z 36008KT 02/M01 A3049 RMK A01 T00211008  RH  081%=      5-min Rain = 0
KHA3 080254Z 36006KT 02/M01 A3049 RMK A01 T00211007  RH  082%=      5-min Rain = 0
KHA3 080255Z 35008KT 02/M01 A3049 RMK A01 T00211006  RH  082%=      5-min Rain = 0
KHA3 080256Z 36007KT 02/M01 A3049 RMK A01 T00211006  RH  082%=      5-min Rain = 0
KHA3 080257Z 36008KT 02/M01 A3049 RMK A01 T00211005  RH  083%=      5-min Rain = 0
KHA3 080258Z 35009KT 02/M01 A3049 RMK A01 T00211006  RH  082%=      5-min Rain = 0
KHA3 080259Z 36008KT 02/M01 A3049 RMK A01 T00211008  RH  081%=      5-min Rain = 0
KHA3 080300Z 35008KT 02/M01 A3049 RMK A01 T00211007  RH  081%=      5-min Rain = 0
KHA3 080301Z 35008KT 02/M01 A3049 RMK A01 T00211006  RH  082%=      5-min Rain = 0
KHA3 080302Z 35008KT 02/M01 A3049 RMK A01 T00211006  RH  082%=      5-min Rain = 0
KHA3 080303Z 35008KT 02/M01 A3049 RMK A01 T00211007  RH  082%=      5-min Rain = 0
KHA3 080304Z 35008KT 02/M01 A3049 RMK A01 T00211007  RH  082%=      5-min Rain = 0
KHA3 080305Z 36006KT 02/M01 A3049 RMK A01 T00211006  RH  082%=      5-min Rain = 0
KHA3 080306Z 00008KT 02/M01 A3049 RMK A01 T00211005  RH  083%=      5-min Rain = 0
KHA3 080307Z 35007KT 02/M01 A3049 RMK A01 T00211006  RH  082%=      5-min Rain = 0
KHA3 080308Z 36007KT 02/M01 A3049 RMK A01 T00211006  RH  083%=      5-min Rain = 0
KHA3 080309Z 36007KT 02/M01 A3049 RMK A01 T00211005  RH  083%=      5-min Rain = 0
KHA3 080310Z 36008KT 02/M01 A3049 RMK A01 T00211006  RH  082%=      5-min Rain = 0
KHA3 080311Z 36007KT 02/M01 A3049 RMK A01 T00211006  RH  082%=      5-min Rain = 0
KHA3 080312Z 36007KT 02/M00 A3049 RMK A01 T00221004  RH  083%=      5-min Rain = 0
KHA3 080313Z 36007KT 02/M01 A3049 RMK A01 T00211005  RH  083%=      5-min Rain = 0
KHA3 080314Z 00007KT 02/M00 A3049 RMK A01 T00221004  RH  083%=      5-min Rain = 0
KHA3 080315Z 36008KT 02/M00 A3049 RMK A01 T00221004  RH  083%=      5-min Rain = 0
KHA3 080316Z 36009KT 02/M01 A3049 RMK A01 T00211006  RH  082%=      5-min Rain = 0
KHA3 080317Z 36008KT 02/M01 A3049 RMK A01 T00211007  RH  082%=      5-min Rain = 0
KHA3 080318Z 35007KT 02/M01 A3049 RMK A01 T00211007  RH  082%=      5-min Rain = 0
KHA3 080319Z 35007KT 02/M01 A3049 RMK A01 T00221006  RH  082%=      5-min Rain = 0
KHA3 080320Z 35007KT 02/M01 A3049 RMK A01 T00221006  RH  082%=      5-min Rain = 0
KHA3 080321Z 35009KT 02/M01 A3049 RMK A01 T00221006  RH  082%=      5-min Rain = 0
KHA3 080322Z 35009KT 02/M01 A3049 RMK A01 T00221007  RH  081%=      5-min Rain = 0
KHA3 080323Z 36007KT 02/M01 A3049 RMK A01 T00211006  RH  082%=      5-min Rain = 0
KHA3 080324Z 36008KT 02/M01 A3049 RMK A01 T00221005  RH  082%=      5-min Rain = 0
KHA3 080325Z 36010KT 02/M01 A3049 RMK A01 T00211007  RH  082%=      5-min Rain = 0
KHA3 080326Z 35009KT 02/M01 A3049 RMK A01 T00211008  RH  081%=      5-min Rain = 0
KHA3 080327Z 35008KT 02/M01 A3049 RMK A01 T00211007  RH  081%=      5-min Rain = 0
KHA3 080328Z 35008KT 02/M01 A3049 RMK A01 T00221006  RH  082%=      5-min Rain = 0
KHA3 080329Z 35008KT 02/M01 A3049 RMK A01 T00221006  RH  081%=      5-min Rain = 0
KHA3 080330Z 35008KT 02/M01 A3049 RMK A01 T00221007  RH  081%=      5-min Rain = 0
KHA3 080331Z 34008KT 02/M01 A3049 RMK A01 T00221007  RH  081%=      5-min Rain = 0
KHA3 080332Z 35008KT 02/M01 A3049 RMK A01 T00221007  RH  081%=      5-min Rain = 0
KHA3 080333Z 35007KT 02/M01 A3049 RMK A01 T00221007  RH  081%=      5-min Rain = 0
KHA3 080334Z 35006KT 02/M01 A3049 RMK A01 T00221006  RH  082%=      5-min Rain = 0
KHA3 080335Z 35006KT 02/M01 A3049 RMK A01 T00221005  RH  082%=      5-min Rain = 0
KHA3 080336Z 35006KT 02/M01 A3049 RMK A01 T00221005  RH  083%=      5-min Rain = 0
KHA3 080337Z 35007KT 02/M01 A3049 RMK A01 T00221005  RH  082%=      5-min Rain = 0
KHA3 080338Z 35006KT 02/M01 A3049 RMK A01 T00221005  RH  083%=      5-min Rain = 0
KHA3 080339Z 35007KT 02/M00 A3049 RMK A01 T00221004  RH  083%=      5-min Rain = 0
KHA3 080340Z 35006KT 02/M00 A3049 RMK A01 T00221004  RH  083%=      5-min Rain = 0
KHA3 080341Z 35008KT 02/M00 A3049 RMK A01 T00221004  RH  083%=      5-min Rain = 0
KHA3 080342Z 35008KT 02/M01 A3049 RMK A01 T00221006  RH  082%=      5-min Rain = 0
KHA3 080343Z 35006KT 02/M01 A3049 RMK A01 T00221005  RH  082%=      5-min Rain = 0
KHA3 080344Z 35006KT 02/M00 A3049 RMK A01 T00221004  RH  083%=      5-min Rain = 0
KHA3 080345Z 35007KT 02/M00 A3049 RMK A01 T00221004  RH  083%=      5-min Rain = 0
KHA3 080346Z 36008KT 02/M00 A3049 RMK A01 T00221004  RH  083%=      5-min Rain = 0
KHA3 080347Z 36007KT 02/M01 A3049 RMK A01 T00221005  RH  083%=      5-min Rain = 0
KHA3 080348Z 36007KT 02/M01 A3049 RMK A01 T00221005  RH  083%=      5-min Rain = 0
KHA3 080349Z 36008KT 02/M00 A3049 RMK A01 T00221004  RH  083%=      5-min Rain = 0
KHA3 080350Z 35007KT 02/M00 A3049 RMK A01 T00221003  RH  083%=      5-min Rain = 0
KHA3 080351Z 36006KT 02/M00 A3049 RMK A01 T00221003  RH  084%=      5-min Rain = 0
KHA3 080352Z 36008KT 02/M00 A3049 RMK A01 T00221003  RH  084%=      5-min Rain = 0
KHA3 080353Z 36008KT 02/M00 A3049 RMK A01 T00221004  RH  083%=      5-min Rain = 0
KHA3 080354Z 35007KT 02/M00 A3049 RMK A01 T00221004  RH  083%=      5-min Rain = 0
KHA3 080355Z 35008KT 02/M00 A3049 RMK A01 T00221004  RH  083%=      5-min Rain = 0
KHA3 080356Z 35008KT 02/M00 A3049 RMK A01 T00221004  RH  083%=      5-min Rain = 0
KHA3 080357Z 35008KT 02/M00 A3049 RMK A01 T00221004  RH  083%=      5-min Rain = 0
KHA3 080358Z 35007KT 02/M00 A3049 RMK A01 T00221003  RH  083%=      5-min Rain = 0
KHA3 080359Z 36006KT 02/M00 A3049 RMK A01 T00221004  RH  083%=      5-min Rain = 0
KHA3 080400Z 36006KT 02/M00 A3049 RMK A01 T00221003  RH  084%=      5-min Rain = 0
KHA3 080401Z 35008KT 02/M00 A3049 RMK A01 T00221002  RH  084%=      5-min Rain = 0
KHA3 080402Z 35008KT 02/M00 A3049 RMK A01 T00221004  RH  083%=      5-min Rain = 0
KHA3 080403Z 35007KT 02/M00 A3049 RMK A01 T00231003  RH  083%=      5-min Rain = 0
KHA3 080404Z 36006KT 02/M00 A3049 RMK A01 T00231003  RH  083%=      5-min Rain = 0
KHA3 080405Z 36007KT 02/M00 A3049 RMK A01 T00221003  RH  083%=      5-min Rain = 0
KHA3 080406Z 35007KT 02/M00 A3049 RMK A01 T00221003  RH  083%=      5-min Rain = 0
KHA3 080407Z 35006KT 02/M00 A3049 RMK A01 T00231003  RH  083%=      5-min Rain = 0
KHA3 080408Z 35006KT 02/M00 A3049 RMK A01 T00231002  RH  084%=      5-min Rain = 0
KHA3 080409Z 36007KT 02/M00 A3049 RMK A01 T00231002  RH  084%=      5-min Rain = 0
KHA3 080410Z 00007KT 02/M00 A3049 RMK A01 T00221003  RH  084%=      5-min Rain = 0
KHA3 080411Z 00007KT 02/M00 A3049 RMK A01 T00231003  RH  084%=      5-min Rain = 0
KHA3 080412Z 00007KT 02/M00 A3049 RMK A01 T00231002  RH  084%=      5-min Rain = 0
KHA3 080413Z 00008KT 02/M00 A3049 RMK A01 T00221003  RH  083%=      5-min Rain = 0
KHA3 080414Z 36007KT 02/M00 A305 RMK A01 T00231003  RH  083%=      5-min Rain = 0
KHA3 080415Z 36007KT 02/M00 A305 RMK A01 T00231003  RH  083%=      5-min Rain = 0
KHA3 080416Z 35006KT 02/M00 A305 RMK A01 T00231003  RH  083%=      5-min Rain = 0
KHA3 080417Z 35005KT 02/M00 A305 RMK A01 T00231003  RH  083%=      5-min Rain = 0
KHA3 080418Z 35006KT 02/M00 A305 RMK A01 T00231002  RH  084%=      5-min Rain = 0
KHA3 080419Z 35007KT 02/M00 A305 RMK A01 T00231002  RH  083%=      5-min Rain = 0
KHA3 080420Z 34006KT 02/M00 A305 RMK A01 T00231002  RH  083%=      5-min Rain = 0
KHA3 080421Z 34006KT 02/M00 A305 RMK A01 T00231003  RH  083%=      5-min Rain = 0
KHA3 080422Z 34005KT 02/M00 A305 RMK A01 T00241002  RH  083%=      5-min Rain = 0
KHA3 080423Z 34005KT 02/M00 A305 RMK A01 T00241001  RH  083%=      5-min Rain = 0
KHA3 080424Z 34004KT 02/M00 A305 RMK A01 T00241002  RH  083%=      5-min Rain = 0
KHA3 080425Z 34004KT 02/M00 A305 RMK A01 T00241001  RH  083%=      5-min Rain = 0
KHA3 080426Z 34005KT 02/M00 A305 RMK A01 T00241002  RH  083%=      5-min Rain = 0
KHA3 080427Z 35005KT 02/M00 A305 RMK A01 T00241003  RH  083%=      5-min Rain = 0
KHA3 080428Z 35005KT 02/M00 A305 RMK A01 T00241003  RH  083%=      5-min Rain = 0
KHA3 080429Z 34005KT 02/M00 A305 RMK A01 T00241001  RH  083%=      5-min Rain = 0
KHA3 080430Z 34005KT 02/M00 A305 RMK A01 T00241001  RH  084%=      5-min Rain = 0
KHA3 080431Z 34005KT 02/M00 A3051 RMK A01 T00241001  RH  084%=      5-min Rain = 0
KHA3 080432Z 34004KT 02/00 A3051 RMK A01 T00240001  RH  085%=      5-min Rain = 0
KHA3 080433Z 34006KT 02/00 A3051 RMK A01 T00240000  RH  084%=      5-min Rain = 0
KHA3 080434Z 34005KT 02/M00 A3051 RMK A01 T00241002  RH  083%=      5-min Rain = 0
KHA3 080435Z 34005KT 02/M00 A3051 RMK A01 T00241002  RH  083%=      5-min Rain = 0
KHA3 080436Z 34004KT 02/M00 A3051 RMK A01 T00241001  RH  083%=      5-min Rain = 0
KHA3 080437Z 34005KT 03/M00 A3051 RMK A01 T00251001  RH  083%=      5-min Rain = 0
KHA3 080438Z 33005KT 03/M00 A3051 RMK A01 T00251001  RH  083%=      5-min Rain = 0
KHA3 080439Z 34005KT 03/M00 A305 RMK A01 T00251001  RH  083%=      5-min Rain = 0
KHA3 080440Z 34004KT 03/M00 A305 RMK A01 T00251001  RH  083%=      5-min Rain = 0
KHA3 080441Z 34006KT 03/00 A305 RMK A01 T00250000  RH  084%=      5-min Rain = 0
KHA3 080442Z 34006KT 03/M00 A305 RMK A01 T00251001  RH  083%=      5-min Rain = 0
KHA3 080443Z 34006KT 03/M00 A305 RMK A01 T00251001  RH  083%=      5-min Rain = 0
KHA3 080444Z 34005KT 03/M00 A305 RMK A01 T00251001  RH  083%=      5-min Rain = 0
KHA3 080445Z 34005KT 03/M00 A305 RMK A01 T00251002  RH  083%=      5-min Rain = 0
KHA3 080446Z 34005KT 03/M00 A305 RMK A01 T00251001  RH  083%=      5-min Rain = 0
KHA3 080447Z 35006KT 03/00 A305 RMK A01 T002500-0  RH  084%=      5-min Rain = 0
KHA3 080448Z 35006KT 03/M00 A305 RMK A01 T00251001  RH  083%=      5-min Rain = 0
KHA3 080449Z 34006KT 03/00 A305 RMK A01 T00250000  RH  084%=      5-min Rain = 0
KHA3 080450Z 35006KT 03/00 A305 RMK A01 T00250001  RH  084%=      5-min Rain = 0
KHA3 080451Z 35006KT 03/00 A305 RMK A01 T00250001  RH  084%=      5-min Rain = 0
KHA3 080452Z 35006KT 03/00 A305 RMK A01 T00250000  RH  084%=      5-min Rain = 0
KHA3 080453Z 34006KT 03/00 A305 RMK A01 T00250000  RH  084%=      5-min Rain = 0
KHA3 080454Z 35006KT 02/M00 A305 RMK A01 T00241001  RH  084%=      5-min Rain = 0
KHA3 080455Z 35006KT 02/M00 A305 RMK A01 T00241001  RH  084%=      5-min Rain = 0
KHA3 080456Z 34005KT 02/M00 A305 RMK A01 T00241001  RH  083%=      5-min Rain = 0
KHA3 080457Z 34005KT 02/M00 A305 RMK A01 T00241001  RH  084%=      5-min Rain = 0
KHA3 080458Z 35005KT 02/00 A305 RMK A01 T00240000  RH  084%=      5-min Rain = 0
KHA3 080459Z 34004KT 02/00 A305 RMK A01 T00240001  RH  084%=      5-min Rain = 0
KHA3 080500Z 34004KT 02/00 A305 RMK A01 T00240001  RH  085%=      5-min Rain = 0
KHA3 080501Z 34006KT 02/00 A305 RMK A01 T00240001  RH  084%=      5-min Rain = 0
KHA3 080502Z 34005KT 02/00 A305 RMK A01 T002400-0  RH  084%=      5-min Rain = 0
KHA3 080503Z 34005KT 03/00 A305 RMK A01 T002500-0  RH  084%=      5-min Rain = 0
KHA3 080504Z 34005KT 03/00 A305 RMK A01 T00250001  RH  085%=      5-min Rain = 0
KHA3 080505Z 35006KT 03/00 A305 RMK A01 T00250002  RH  085%=      5-min Rain = 0
KHA3 080506Z 35005KT 03/00 A305 RMK A01 T00250001  RH  084%=      5-min Rain = 0
KHA3 080507Z 34005KT 03/00 A305 RMK A01 T00250001  RH  084%=      5-min Rain = 0
KHA3 080508Z 34005KT 03/00 A305 RMK A01 T00250001  RH  084%=      5-min Rain = 0
KHA3 080509Z 34005KT 03/00 A305 RMK A01 T00250001  RH  084%=      5-min Rain = 0
KHA3 080510Z 34005KT 03/00 A305 RMK A01 T00250002  RH  084%=      5-min Rain = 0
KHA3 080511Z 34004KT 03/00 A305 RMK A01 T00250001  RH  084%=      5-min Rain = 0
KHA3 080512Z 34005KT 03/00 A305 RMK A01 T00250001  RH  084%=      5-min Rain = 0
KHA3 080513Z 33004KT 03/00 A305 RMK A01 T00250000  RH  084%=      5-min Rain = 0
KHA3 080514Z 34005KT 03/00 A305 RMK A01 T00250001  RH  084%=      5-min Rain = 0
KHA3 080515Z 34005KT 03/00 A305 RMK A01 T00250001  RH  084%=      5-min Rain = 0
KHA3 080516Z 34005KT 03/00 A305 RMK A01 T00250000  RH  084%=      5-min Rain = 0
KHA3 080517Z 34005KT 03/00 A305 RMK A01 T002500-0  RH  083%=      5-min Rain = 0
KHA3 080518Z 33005KT 03/00 A305 RMK A01 T00260001  RH  084%=      5-min Rain = 0
KHA3 080519Z 34006KT 03/00 A305 RMK A01 T00260001  RH  084%=      5-min Rain = 0
KHA3 080520Z 34006KT 03/00 A305 RMK A01 T002600-0  RH  083%=      5-min Rain = 0
KHA3 080521Z 34005KT 03/00 A305 RMK A01 T002600-0  RH  083%=      5-min Rain = 0
KHA3 080522Z 34005KT 03/00 A305 RMK A01 T00260000  RH  083%=      5-min Rain = 0
KHA3 080523Z 34004KT 03/00 A305 RMK A01 T00260001  RH  084%=      5-min Rain = 0
KHA3 080524Z 35004KT 03/00 A305 RMK A01 T00260002  RH  084%=      5-min Rain = 0
KHA3 080525Z 35005KT 03/00 A3049 RMK A01 T00260002  RH  084%=      5-min Rain = 0
KHA3 080526Z 34005KT 03/00 A3049 RMK A01 T00260001  RH  084%=      5-min Rain = 0
KHA3 080527Z 35005KT 03/00 A3049 RMK A01 T00260000  RH  083%=      5-min Rain = 0
KHA3 080528Z 35005KT 03/00 A3049 RMK A01 T002600-0  RH  083%=      5-min Rain = 0
KHA3 080529Z 34007KT 03/00 A3049 RMK A01 T00260000  RH  083%=      5-min Rain = 0
KHA3 080530Z 34006KT 03/M00 A3049 RMK A01 T00261001  RH  083%=      5-min Rain = 0
KHA3 080531Z 34006KT 03/00 A3049 RMK A01 T002600-0  RH  083%=      5-min Rain = 0
KHA3 080532Z 34006KT 03/00 A3049 RMK A01 T00260000  RH  083%=      5-min Rain = 0
KHA3 080533Z 34006KT 03/00 A3049 RMK A01 T00260001  RH  083%=      5-min Rain = 0
KHA3 080534Z 34007KT 03/00 A3049 RMK A01 T00260001  RH  084%=      5-min Rain = 0
KHA3 080535Z 34007KT 03/00 A3049 RMK A01 T00260000  RH  083%=      5-min Rain = 0
KHA3 080536Z 34007KT 03/00 A3049 RMK A01 T002600-0  RH  083%=      5-min Rain = 0
KHA3 080537Z 34008KT 03/M00 A3049 RMK A01 T00261001  RH  083%=      5-min Rain = 0
KHA3 080538Z 34007KT 03/M00 A3049 RMK A01 T00261001  RH  083%=      5-min Rain = 0
KHA3 080539Z 34007KT 03/M00 A3049 RMK A01 T00261001  RH  082%=      5-min Rain = 0
KHA3 080540Z 34007KT 03/00 A3049 RMK A01 T002600-0  RH  083%=      5-min Rain = 0
KHA3 080541Z 34006KT 03/00 A3049 RMK A01 T002600-0  RH  083%=      5-min Rain = 0
KHA3 080542Z 34006KT 03/00 A3049 RMK A01 T00260000  RH  083%=      5-min Rain = 0
KHA3 080543Z 34006KT 03/00 A3049 RMK A01 T00260001  RH  083%=      5-min Rain = 0
KHA3 080544Z 34007KT 03/00 A3049 RMK A01 T00270001  RH  083%=      5-min Rain = 0
KHA3 080545Z 34006KT 03/00 A3049 RMK A01 T00270000  RH  083%=      5-min Rain = 0
KHA3 080546Z 34005KT 03/00 A3049 RMK A01 T00270001  RH  083%=      5-min Rain = 0
KHA3 080547Z 34006KT 03/00 A3049 RMK A01 T00270003  RH  084%=      5-min Rain = 0
KHA3 080548Z 33006KT 03/00 A3049 RMK A01 T00270003  RH  084%=      5-min Rain = 0
KHA3 080549Z 34007KT 03/00 A3049 RMK A01 T00270001  RH  083%=      5-min Rain = 0
KHA3 080550Z 34007KT 03/00 A3049 RMK A01 T00260000  RH  083%=      5-min Rain = 0
KHA3 080551Z 33006KT 03/00 A3049 RMK A01 T00270001  RH  083%=      5-min Rain = 0
KHA3 080552Z 34006KT 03/00 A3049 RMK A01 T00260001  RH  083%=      5-min Rain = 0
KHA3 080553Z 34006KT 03/00 A3048 RMK A01 T00270001  RH  083%=      5-min Rain = 0
KHA3 080554Z 34006KT 03/00 A3048 RMK A01 T00270002  RH  084%=      5-min Rain = 0
KHA3 080555Z 34005KT 03/00 A3048 RMK A01 T00270002  RH  083%=      5-min Rain = 0
KHA3 080556Z 35007KT 03/00 A3048 RMK A01 T00270002  RH  084%=      5-min Rain = 0
KHA3 080557Z 35008KT 03/00 A3048 RMK A01 T00270000  RH  083%=      5-min Rain = 0
KHA3 080558Z 34007KT 03/00 A3048 RMK A01 T00270000  RH  082%=      5-min Rain = 0
KHA3 080559Z 34006KT 03/00 A3048 RMK A01 T00270001  RH  083%=      5-min Rain = 0

Page generated in 0.0718 seconds.